Time,TemperatureF,DewpointF,PressureIn,WindDirection,WindDirectionDegrees,WindSpeedMPH,WindSpeedGustMPH,Humidity,HourlyPrecipIn,Conditions,Clouds,dailyrainin,SoftwareType,DateUTC
2013-04-11 00:01:00,69.3,38.2,27.99,South,183,5.4,6.3,32,0.00,,---,0.00,VWS V14.01,2013-04-11 05:01:00,
2013-04-11 00:02:00,69.3,38.2,27.99,SSE,160,5.4,5.4,32,0.00,,---,0.00,VWS V14.01,2013-04-11 05:02:00,
2013-04-11 00:03:00,69.3,38.2,27.99,South,175,5.8,5.8,32,0.00,,---,0.00,VWS V14.01,2013-04-11 05:03:00,
2013-04-11 00:06:00,69.1,38.0,27.99,South,169,4.9,5.8,32,0.00,,---,0.00,VWS V14.01,2013-04-11 05:06:00,
2013-04-11 00:07:00,69.1,38.0,27.99,South,169,4.9,4.9,32,0.00,,---,0.00,VWS V14.01,2013-04-11 05:07:00,
2013-04-11 00:08:00,69.1,38.0,27.99,South,183,3.1,4.9,32,0.00,,---,0.00,VWS V14.01,2013-04-11 05:08:00,
2013-04-11 00:12:00,69.3,38.2,27.99,South,174,5.4,5.4,32,0.00,,---,0.00,VWS V14.01,2013-04-11 05:12:00,
2013-04-11 00:13:00,69.1,38.0,27.99,SSE,166,5.8,5.8,32,0.00,,---,0.00,VWS V14.01,2013-04-11 05:13:00,
2013-04-11 00:17:00,69.3,38.2,27.99,SSE,166,8.7,8.7,32,0.00,,---,0.00,VWS V14.01,2013-04-11 05:17:00,
2013-04-11 00:18:00,69.1,38.0,27.99,South,186,5.8,5.8,32,0.00,,---,0.00,VWS V14.01,2013-04-11 05:18:00,
2013-04-11 00:22:00,69.1,38.0,28.02,SSE,168,4.9,6.7,32,0.00,,---,0.00,VWS V14.01,2013-04-11 05:22:00,
2013-04-11 00:23:00,69.1,38.0,28.02,SSE,167,4.9,4.9,32,0.00,,---,0.00,VWS V14.01,2013-04-11 05:23:00,
2013-04-11 00:27:00,69.1,38.0,27.96,South,182,6.3,6.3,32,0.00,,---,0.00,VWS V14.01,2013-04-11 05:27:00,
2013-04-11 00:28:00,69.1,38.0,27.96,South,182,6.3,6.3,32,0.00,,---,0.00,VWS V14.01,2013-04-11 05:28:00,
2013-04-11 00:33:00,69.1,38.8,27.96,SSE,151,5.8,5.8,33,0.00,,---,0.00,VWS V14.01,2013-04-11 05:33:00,
2013-04-11 00:38:00,69.1,38.8,27.96,SSE,167,6.3,6.3,33,0.00,,---,0.00,VWS V14.01,2013-04-11 05:38:00,
2013-04-11 00:43:00,69.1,38.8,27.96,SSE,162,4.0,4.9,33,0.00,,---,0.00,VWS V14.01,2013-04-11 05:43:00,
2013-04-11 00:48:00,69.1,38.8,27.96,South,180,4.0,8.1,33,0.00,,---,0.00,VWS V14.01,2013-04-11 05:48:00,
2013-04-11 00:49:00,69.1,38.8,27.96,South,180,4.0,4.0,33,0.00,,---,0.00,VWS V14.01,2013-04-11 05:49:00,
2013-04-11 00:53:00,68.9,38.6,27.96,SW,232,3.1,5.8,33,0.00,,---,0.00,VWS V14.01,2013-04-11 05:53:00,
2013-04-11 00:54:00,68.9,38.6,27.96,SW,232,3.1,3.1,33,0.00,,---,0.00,VWS V14.01,2013-04-11 05:54:00,
2013-04-11 00:58:00,68.7,38.5,27.96,South,170,2.2,3.1,33,0.00,,---,0.00,VWS V14.01,2013-04-11 05:58:00,
2013-04-11 00:59:00,68.7,38.5,27.96,South,182,3.1,3.1,33,0.00,,---,0.00,VWS V14.01,2013-04-11 05:59:00,
2013-04-11 01:03:00,68.4,38.2,27.96,South,178,2.7,2.7,33,0.00,,---,0.00,VWS V14.01,2013-04-11 06:03:00,
2013-04-11 01:04:00,68.4,38.2,27.96,South,178,0.0,0.0,33,0.00,,---,0.00,VWS V14.01,2013-04-11 06:04:00,
2013-04-11 01:08:00,68.2,38.0,27.96,South,181,0.0,2.2,33,0.00,,---,0.00,VWS V14.01,2013-04-11 06:08:00,
2013-04-11 01:09:00,68.2,38.0,27.96,South,181,2.2,2.2,33,0.00,,---,0.00,VWS V14.01,2013-04-11 06:09:00,
2013-04-11 01:13:00,67.8,38.5,27.96,South,169,3.1,3.1,34,0.00,,---,0.00,VWS V14.01,2013-04-11 06:13:00,
2013-04-11 01:14:00,67.8,38.5,27.96,South,169,3.1,3.1,34,0.00,,---,0.00,VWS V14.01,2013-04-11 06:14:00,
2013-04-11 01:18:00,67.6,38.3,27.96,SE,144,3.1,3.1,34,0.00,,---,0.00,VWS V14.01,2013-04-11 06:18:00,
2013-04-11 01:19:00,67.6,38.3,27.96,SE,144,3.1,3.1,34,0.00,,---,0.00,VWS V14.01,2013-04-11 06:19:00,
2013-04-11 01:23:00,67.3,38.7,27.96,South,184,2.7,2.7,35,0.00,,---,0.00,VWS V14.01,2013-04-11 06:23:00,
2013-04-11 01:24:00,67.3,38.7,27.96,South,184,2.7,2.7,35,0.00,,---,0.00,VWS V14.01,2013-04-11 06:24:00,
2013-04-11 01:29:00,67.3,38.7,27.99,South,184,3.6,3.6,35,0.00,,---,0.00,VWS V14.01,2013-04-11 06:29:00,
2013-04-11 01:30:00,67.3,38.7,27.99,South,187,3.6,4.0,35,0.00,,---,0.00,VWS V14.01,2013-04-11 06:30:00,
2013-04-11 01:34:00,67.1,38.6,27.99,South,173,6.7,6.7,35,0.00,,---,0.00,VWS V14.01,2013-04-11 06:34:00,
2013-04-11 01:35:00,67.3,38.7,27.99,South,169,3.6,3.6,35,0.00,,---,0.00,VWS V14.01,2013-04-11 06:35:00,
2013-04-11 01:39:00,67.3,38.7,27.99,South,178,5.4,5.4,35,0.00,,---,0.00,VWS V14.01,2013-04-11 06:39:00,
2013-04-11 01:40:00,67.3,38.7,27.99,SE,141,6.3,6.3,35,0.00,,---,0.00,VWS V14.01,2013-04-11 06:40:00,
2013-04-11 01:44:00,67.5,38.9,27.99,South,175,5.4,8.1,35,0.00,,---,0.00,VWS V14.01,2013-04-11 06:44:00,
2013-04-11 01:45:00,67.5,38.9,27.99,SSE,165,6.3,6.3,35,0.00,,---,0.00,VWS V14.01,2013-04-11 06:45:00,
2013-04-11 01:50:00,67.5,38.9,27.99,South,180,5.4,5.4,35,0.00,,---,0.00,VWS V14.01,2013-04-11 06:50:00,
2013-04-11 01:55:00,67.5,38.9,27.96,SSE,162,4.0,4.0,35,0.00,,---,0.00,VWS V14.01,2013-04-11 06:55:00,
2013-04-11 02:00:00,67.5,38.9,27.96,SSE,162,6.3,6.3,35,0.00,,---,0.00,VWS V14.01,2013-04-11 07:00:00,
2013-04-11 02:01:00,67.5,38.9,27.96,South,170,5.8,6.3,35,0.00,,---,0.00,VWS V14.01,2013-04-11 07:01:00,
2013-04-11 02:05:00,67.3,39.4,27.96,SSE,159,4.0,6.3,36,0.00,,---,0.00,VWS V14.01,2013-04-11 07:05:00,
2013-04-11 02:06:00,67.3,39.4,27.96,SSE,159,4.0,4.0,36,0.00,,---,0.00,VWS V14.01,2013-04-11 07:06:00,
2013-04-11 02:10:00,67.3,39.4,27.99,South,178,2.7,6.3,36,0.00,,---,0.00,VWS V14.01,2013-04-11 07:10:00,
2013-04-11 02:11:00,67.3,39.4,27.99,SSE,152,8.3,10.5,36,0.00,,---,0.00,VWS V14.01,2013-04-11 07:11:00,
2013-04-11 02:15:00,67.3,39.4,27.99,South,180,4.0,4.0,36,0.00,,---,0.00,VWS V14.01,2013-04-11 07:15:00,
2013-04-11 02:16:00,67.3,39.4,27.99,SSE,153,5.8,5.8,36,0.00,,---,0.00,VWS V14.01,2013-04-11 07:16:00,
2013-04-11 02:20:00,67.1,39.3,27.99,South,175,4.9,4.9,36,0.00,,---,0.00,VWS V14.01,2013-04-11 07:20:00,
2013-04-11 02:21:00,67.1,39.3,27.99,NW,317,5.8,5.8,36,0.00,,---,0.00,VWS V14.01,2013-04-11 07:21:00,
2013-04-11 02:25:00,67.1,39.3,27.99,SSE,166,5.8,5.8,36,0.00,,---,0.00,VWS V14.01,2013-04-11 07:25:00,
2013-04-11 02:26:00,67.1,39.3,27.99,SSE,166,5.8,5.8,36,0.00,,---,0.00,VWS V14.01,2013-04-11 07:26:00,
2013-04-11 02:30:00,67.1,39.3,27.99,South,178,4.0,4.0,36,0.00,,---,0.00,VWS V14.01,2013-04-11 07:30:00,
2013-04-11 02:31:00,67.1,39.3,27.99,South,178,4.0,4.0,36,0.00,,---,0.00,VWS V14.01,2013-04-11 07:31:00,
2013-04-11 02:35:00,66.9,39.1,27.99,SSE,150,4.0,4.0,36,0.00,,---,0.00,VWS V14.01,2013-04-11 07:35:00,
2013-04-11 02:36:00,66.9,39.1,27.99,SSE,150,4.0,4.0,36,0.00,,---,0.00,VWS V14.01,2013-04-11 07:36:00,
2013-04-11 02:37:00,66.9,39.1,27.99,South,187,5.4,5.4,36,0.00,,---,0.00,VWS V14.01,2013-04-11 07:37:00,
2013-04-11 02:41:00,66.9,39.1,27.99,South,179,4.0,4.9,36,0.00,,---,0.00,VWS V14.01,2013-04-11 07:41:00,
2013-04-11 02:42:00,66.9,39.1,27.99,South,179,4.0,4.0,36,0.00,,---,0.00,VWS V14.01,2013-04-11 07:42:00,
2013-04-11 02:46:00,66.9,39.1,27.99,South,191,5.4,5.4,36,0.00,,---,0.00,VWS V14.01,2013-04-11 07:46:00,
2013-04-11 02:47:00,66.9,39.1,27.99,South,172,5.8,5.8,36,0.00,,---,0.00,VWS V14.01,2013-04-11 07:47:00,
2013-04-11 02:51:00,66.7,39.0,27.99,SSE,153,5.4,5.4,36,0.00,,---,0.00,VWS V14.01,2013-04-11 07:51:00,
2013-04-11 02:52:00,66.7,39.0,27.99,SE,143,5.8,5.8,36,0.00,,---,0.00,VWS V14.01,2013-04-11 07:52:00,
2013-04-11 02:56:00,66.7,39.0,27.99,SSE,165,3.6,3.6,36,0.00,,---,0.00,VWS V14.01,2013-04-11 07:56:00,
2013-04-11 02:57:00,66.7,39.0,27.99,SSE,165,3.6,3.6,36,0.00,,---,0.00,VWS V14.01,2013-04-11 07:57:00,
2013-04-11 03:01:00,66.6,39.5,27.99,SSW,198,3.6,3.6,37,0.00,,---,0.00,VWS V14.01,2013-04-11 08:01:00,
2013-04-11 03:02:00,66.6,39.5,27.99,South,179,3.1,3.1,37,0.00,,---,0.00,VWS V14.01,2013-04-11 08:02:00,
2013-04-11 03:03:00,66.6,39.5,27.99,South,187,2.2,3.6,37,0.00,,---,0.00,VWS V14.01,2013-04-11 08:03:00,
2013-04-11 03:06:00,66.4,39.3,27.96,SSW,212,3.6,4.0,37,0.00,,---,0.00,VWS V14.01,2013-04-11 08:06:00,
2013-04-11 03:07:00,66.4,39.3,27.96,SSE,159,2.7,2.7,37,0.00,,---,0.00,VWS V14.01,2013-04-11 08:07:00,
2013-04-11 03:08:00,66.4,39.3,27.96,SSE,159,2.7,2.7,37,0.00,,---,0.00,VWS V14.01,2013-04-11 08:08:00,
2013-04-11 03:11:00,66.2,39.2,27.96,SSE,153,5.4,5.4,37,0.00,,---,0.00,VWS V14.01,2013-04-11 08:11:00,
2013-04-11 03:12:00,66.2,39.2,27.96,South,169,5.4,5.4,37,0.00,,---,0.00,VWS V14.01,2013-04-11 08:12:00,
2013-04-11 03:13:00,66.2,39.2,27.96,South,183,3.1,5.4,37,0.00,,---,0.00,VWS V14.01,2013-04-11 08:13:00,
2013-04-11 03:16:00,66.0,39.7,27.96,SSE,150,3.6,4.0,38,0.00,,---,0.00,VWS V14.01,2013-04-11 08:16:00,
2013-04-11 03:18:00,66.0,39.7,27.96,South,175,3.1,3.6,38,0.00,,---,0.00,VWS V14.01,2013-04-11 08:18:00,
2013-04-11 03:22:00,66.0,39.7,27.96,WSW,243,3.1,3.1,38,0.00,,---,0.00,VWS V14.01,2013-04-11 08:22:00,
2013-04-11 03:23:00,66.0,40.4,27.96,NW,310,2.2,3.1,39,0.00,,---,0.00,VWS V14.01,2013-04-11 08:23:00,
2013-04-11 03:27:00,65.8,40.2,27.96,South,188,3.6,3.6,39,0.00,,---,0.00,VWS V14.01,2013-04-11 08:27:00,
2013-04-11 03:28:00,65.8,40.2,27.96,South,172,5.8,5.8,39,0.00,,---,0.00,VWS V14.01,2013-04-11 08:28:00,
2013-04-11 03:32:00,65.8,40.2,27.96,SSW,205,4.0,4.0,39,0.00,,---,0.00,VWS V14.01,2013-04-11 08:32:00,
2013-04-11 03:33:00,65.8,40.2,27.96,SSW,205,4.0,4.0,39,0.00,,---,0.00,VWS V14.01,2013-04-11 08:33:00,
2013-04-11 03:38:00,65.8,40.2,27.96,SSE,157,4.0,4.0,39,0.00,,---,0.00,VWS V14.01,2013-04-11 08:38:00,
2013-04-11 03:43:00,65.8,40.2,27.96,SSE,164,3.6,3.6,39,0.00,,---,0.00,VWS V14.01,2013-04-11 08:43:00,
2013-04-11 03:48:00,65.7,40.7,27.96,South,169,4.0,4.0,40,0.00,,---,0.00,VWS V14.01,2013-04-11 08:48:00,
2013-04-11 03:53:00,65.7,41.3,27.96,South,169,2.7,2.7,41,0.00,,---,0.00,VWS V14.01,2013-04-11 08:53:00,
2013-04-11 03:58:00,65.7,41.3,27.96,South,176,2.7,2.7,41,0.00,,---,0.00,VWS V14.01,2013-04-11 08:58:00,
2013-04-11 03:59:00,65.7,41.3,27.96,South,179,2.7,2.7,41,0.00,,---,0.00,VWS V14.01,2013-04-11 08:59:00,
2013-04-11 04:03:00,65.7,41.3,27.96,SSE,161,4.0,4.0,41,0.00,,---,0.00,VWS V14.01,2013-04-11 09:03:00,
2013-04-11 04:04:00,65.7,41.3,27.96,South,169,3.6,3.6,41,0.00,,---,0.00,VWS V14.01,2013-04-11 09:04:00,
2013-04-11 04:08:00,65.1,41.5,27.96,South,174,3.1,3.1,42,0.00,,---,0.00,VWS V14.01,2013-04-11 09:08:00,
2013-04-11 04:09:00,65.1,41.5,27.96,South,174,3.1,3.1,42,0.00,,---,0.00,VWS V14.01,2013-04-11 09:09:00,
2013-04-11 04:13:00,65.1,41.5,27.96,South,187,2.7,3.1,42,0.00,,---,0.00,VWS V14.01,2013-04-11 09:13:00,
2013-04-11 04:14:00,65.1,41.5,27.96,South,188,4.9,4.9,42,0.00,,---,0.00,VWS V14.01,2013-04-11 09:14:00,
2013-04-11 04:18:00,65.1,41.5,27.96,SSW,194,0.0,2.2,42,0.00,,---,0.00,VWS V14.01,2013-04-11 09:18:00,
2013-04-11 04:19:00,65.1,41.5,27.96,SSW,194,0.0,0.0,42,0.00,,---,0.00,VWS V14.01,2013-04-11 09:19:00,
2013-04-11 04:23:00,64.9,41.3,27.96,SSW,194,0.0,0.0,42,0.00,,---,0.00,VWS V14.01,2013-04-11 09:23:00,
2013-04-11 04:24:00,64.8,41.2,27.96,SSW,194,0.0,0.0,42,0.00,,---,0.00,VWS V14.01,2013-04-11 09:24:00,
2013-04-11 04:28:00,64.8,41.2,27.96,SSE,152,2.2,2.7,42,0.00,,---,0.00,VWS V14.01,2013-04-11 09:28:00,
2013-04-11 04:29:00,64.8,41.2,27.96,SSE,152,2.2,2.2,42,0.00,,---,0.00,VWS V14.01,2013-04-11 09:29:00,
2013-04-11 04:33:00,64.6,41.0,27.96,South,174,0.0,0.0,42,0.00,,---,0.00,VWS V14.01,2013-04-11 09:33:00,
2013-04-11 04:34:00,64.6,41.0,27.96,South,176,2.2,2.2,42,0.00,,---,0.00,VWS V14.01,2013-04-11 09:34:00,
2013-04-11 04:35:00,64.4,41.4,27.96,South,177,3.1,3.1,43,0.00,,---,0.00,VWS V14.01,2013-04-11 09:35:00,
2013-04-11 04:38:00,64.4,41.4,27.96,South,174,2.2,2.2,43,0.00,,---,0.00,VWS V14.01,2013-04-11 09:38:00,
2013-04-11 04:39:00,64.4,41.4,27.96,South,174,2.2,2.2,43,0.00,,---,0.00,VWS V14.01,2013-04-11 09:39:00,
2013-04-11 04:40:00,64.4,41.4,27.96,South,174,2.2,2.2,43,0.00,,---,0.00,VWS V14.01,2013-04-11 09:40:00,
2013-04-11 04:43:00,64.4,41.4,27.96,SSW,206,0.0,0.0,43,0.00,,---,0.00,VWS V14.01,2013-04-11 09:43:00,
2013-04-11 04:44:00,64.4,41.4,27.96,SSW,206,0.0,0.0,43,0.00,,---,0.00,VWS V14.01,2013-04-11 09:44:00,
2013-04-11 04:45:00,64.4,41.4,27.96,SSW,205,2.7,3.1,43,0.00,,---,0.00,VWS V14.01,2013-04-11 09:45:00,
2013-04-11 04:48:00,64.2,41.9,27.96,South,178,0.0,0.0,44,0.00,,---,0.00,VWS V14.01,2013-04-11 09:48:00,
2013-04-11 04:49:00,64.2,41.9,27.96,South,178,0.0,0.0,44,0.00,,---,0.00,VWS V14.01,2013-04-11 09:49:00,
2013-04-11 04:50:00,64.2,41.9,27.96,South,178,2.2,2.2,44,0.00,,---,0.00,VWS V14.01,2013-04-11 09:50:00,
2013-04-11 04:54:00,64.2,41.9,27.96,SSE,163,0.0,0.0,44,0.00,,---,0.00,VWS V14.01,2013-04-11 09:54:00,
2013-04-11 04:55:00,64.0,41.7,27.96,South,177,0.0,0.0,44,0.00,,---,0.00,VWS V14.01,2013-04-11 09:55:00,
2013-04-11 04:59:00,64.0,41.7,27.96,SSE,164,2.7,2.7,44,0.00,,---,0.00,VWS V14.01,2013-04-11 09:59:00,
2013-04-11 05:00:00,64.0,41.7,27.96,SSE,163,2.7,2.7,44,0.00,,---,0.00,VWS V14.01,2013-04-11 10:00:00,
2013-04-11 05:01:00,63.9,41.5,27.96,SSE,163,0.0,0.0,44,0.00,,---,0.00,VWS V14.01,2013-04-11 10:01:00,
2013-04-11 05:04:00,63.9,41.5,27.96,SSE,164,0.0,0.0,44,0.00,,---,0.00,VWS V14.01,2013-04-11 10:04:00,
2013-04-11 05:05:00,63.9,41.5,27.96,SSE,164,0.0,0.0,44,0.00,,---,0.00,VWS V14.01,2013-04-11 10:05:00,
2013-04-11 05:06:00,63.9,41.5,27.96,SSE,164,2.2,2.2,44,0.00,,---,0.00,VWS V14.01,2013-04-11 10:06:00,
2013-04-11 05:07:00,63.9,41.5,27.96,SSE,164,2.2,2.2,44,0.00,,---,0.00,VWS V14.01,2013-04-11 10:07:00,
2013-04-11 05:09:00,63.9,41.5,27.96,SSE,164,2.2,2.2,44,0.00,,---,0.00,VWS V14.01,2013-04-11 10:09:00,
2013-04-11 05:10:00,63.9,41.5,27.94,SSE,164,2.2,2.2,44,0.00,,---,0.00,VWS V14.01,2013-04-11 10:10:00,
2013-04-11 05:11:00,63.7,41.4,27.94,SSE,164,2.2,2.2,44,0.00,,---,0.00,VWS V14.01,2013-04-11 10:11:00,
2013-04-11 05:12:00,63.7,41.4,27.94,SSE,164,2.2,2.2,44,0.00,,---,0.00,VWS V14.01,2013-04-11 10:12:00,
2013-04-11 05:14:00,63.5,41.8,27.94,SSE,167,2.7,2.7,45,0.00,,---,0.00,VWS V14.01,2013-04-11 10:14:00,
2013-04-11 05:15:00,63.5,41.8,27.94,SSE,167,2.7,2.7,45,0.00,,---,0.00,VWS V14.01,2013-04-11 10:15:00,
2013-04-11 05:16:00,63.5,41.8,27.94,SSE,167,2.7,2.7,45,0.00,,---,0.00,VWS V14.01,2013-04-11 10:16:00,
2013-04-11 05:17:00,63.5,41.8,27.94,SSE,167,2.7,2.7,45,0.00,,---,0.00,VWS V14.01,2013-04-11 10:17:00,
2013-04-11 05:19:00,63.5,41.8,27.94,SSE,167,0.0,0.0,45,0.00,,---,0.00,VWS V14.01,2013-04-11 10:19:00,
2013-04-11 05:20:00,63.5,41.8,27.94,SSE,167,2.7,2.7,45,0.00,,---,0.00,VWS V14.01,2013-04-11 10:20:00,
2013-04-11 05:21:00,63.3,41.6,27.94,SSE,167,2.7,2.7,45,0.00,,---,0.00,VWS V14.01,2013-04-11 10:21:00,
2013-04-11 05:22:00,63.3,41.6,27.94,SSE,166,2.7,2.7,45,0.00,,---,0.00,VWS V14.01,2013-04-11 10:22:00,
2013-04-11 05:25:00,63.3,41.6,27.94,SSE,166,2.7,2.7,45,0.00,,---,0.00,VWS V14.01,2013-04-11 10:25:00,
2013-04-11 05:26:00,63.3,41.6,27.94,SSE,166,0.0,3.1,45,0.00,,---,0.00,VWS V14.01,2013-04-11 10:26:00,
2013-04-11 05:27:00,63.1,41.5,27.94,SSE,167,2.7,2.7,45,0.00,,---,0.00,VWS V14.01,2013-04-11 10:27:00,
2013-04-11 05:30:00,63.1,42.0,27.94,SSE,167,0.0,2.2,46,0.00,,---,0.00,VWS V14.01,2013-04-11 10:30:00,
2013-04-11 05:31:00,63.1,42.0,27.94,SSE,167,0.0,0.0,46,0.00,,---,0.00,VWS V14.01,2013-04-11 10:31:00,
2013-04-11 05:33:00,63.1,42.0,27.94,SSE,167,0.0,0.0,46,0.00,,---,0.00,VWS V14.01,2013-04-11 10:33:00,
2013-04-11 05:35:00,63.0,41.9,27.94,SSE,167,2.7,2.7,46,0.00,,---,0.00,VWS V14.01,2013-04-11 10:35:00,
2013-04-11 05:37:00,63.0,41.9,27.96,SSE,167,2.2,2.2,46,0.00,,---,0.00,VWS V14.01,2013-04-11 10:37:00,
2013-04-11 05:38:00,63.0,41.9,27.96,SSE,167,3.1,3.1,46,0.00,,---,0.00,VWS V14.01,2013-04-11 10:38:00,
2013-04-11 05:40:00,63.0,41.9,27.96,SSE,167,0.0,3.1,46,0.00,,---,0.00,VWS V14.01,2013-04-11 10:40:00,
2013-04-11 05:42:00,63.0,41.9,27.96,SSE,167,0.0,3.1,46,0.00,,---,0.00,VWS V14.01,2013-04-11 10:42:00,
2013-04-11 05:43:00,62.8,41.7,27.96,SSE,167,3.1,3.1,46,0.00,,---,0.00,VWS V14.01,2013-04-11 10:43:00,
2013-04-11 05:45:00,62.8,41.7,27.96,SSE,167,2.2,3.1,46,0.00,,---,0.00,VWS V14.01,2013-04-11 10:45:00,
2013-04-11 05:47:00,62.8,41.7,27.99,South,182,3.1,3.1,46,0.00,,---,0.00,VWS V14.01,2013-04-11 10:47:00,
2013-04-11 05:48:00,62.6,42.1,27.99,South,182,0.0,2.7,47,0.00,,---,0.00,VWS V14.01,2013-04-11 10:48:00,
2013-04-11 05:50:00,62.6,42.1,27.99,South,179,2.2,3.1,47,0.00,,---,0.00,VWS V14.01,2013-04-11 10:50:00,
2013-04-11 05:52:00,62.6,42.1,27.99,South,179,0.0,0.0,47,0.00,,---,0.00,VWS V14.01,2013-04-11 10:52:00,
2013-04-11 05:53:00,62.6,42.1,27.99,South,179,2.2,2.2,47,0.00,,---,0.00,VWS V14.01,2013-04-11 10:53:00,
2013-04-11 05:55:00,62.6,42.1,27.99,South,179,2.2,2.2,47,0.00,,---,0.00,VWS V14.01,2013-04-11 10:55:00,
2013-04-11 05:57:00,62.6,42.1,27.99,South,179,2.2,2.2,47,0.00,,---,0.00,VWS V14.01,2013-04-11 10:57:00,
2013-04-11 05:58:00,62.4,42.5,27.99,South,180,2.7,2.7,48,0.00,,---,0.00,VWS V14.01,2013-04-11 10:58:00,
2013-04-11 06:00:00,62.4,42.5,27.99,South,180,2.2,2.2,48,0.00,,---,0.00,VWS V14.01,2013-04-11 11:00:00,
2013-04-11 06:01:00,62.4,42.5,27.99,South,180,2.2,2.2,48,0.00,,---,0.00,VWS V14.01,2013-04-11 11:01:00,
2013-04-11 06:02:00,62.4,42.5,27.99,South,180,2.7,2.7,48,0.00,,---,0.00,VWS V14.01,2013-04-11 11:02:00,
2013-04-11 06:03:00,62.2,42.3,27.99,South,179,2.7,2.7,48,0.00,,---,0.00,VWS V14.01,2013-04-11 11:03:00,
2013-04-11 06:05:00,62.2,42.3,27.99,South,182,2.7,2.7,48,0.00,,---,0.00,VWS V14.01,2013-04-11 11:05:00,
2013-04-11 06:07:00,62.2,42.3,27.99,South,182,2.7,2.7,48,0.00,,---,0.00,VWS V14.01,2013-04-11 11:07:00,
2013-04-11 06:09:00,62.2,42.3,27.96,South,179,3.1,4.0,48,0.00,,---,0.00,VWS V14.01,2013-04-11 11:09:00,
2013-04-11 06:11:00,62.2,42.3,27.96,South,181,3.1,3.1,48,0.00,,---,0.00,VWS V14.01,2013-04-11 11:11:00,
2013-04-11 06:12:00,62.1,42.7,27.96,SSE,167,3.1,3.1,49,0.00,,---,0.00,VWS V14.01,2013-04-11 11:12:00,
2013-04-11 06:14:00,62.1,42.7,27.96,SSE,159,3.6,3.6,49,0.00,,---,0.00,VWS V14.01,2013-04-11 11:14:00,
2013-04-11 06:16:00,62.1,42.7,27.96,South,181,4.0,4.0,49,0.00,,---,0.00,VWS V14.01,2013-04-11 11:16:00,
2013-04-11 06:17:00,62.1,42.7,27.96,South,169,2.7,3.1,49,0.00,,---,0.00,VWS V14.01,2013-04-11 11:17:00,
2013-04-11 06:19:00,62.1,42.7,27.96,SSE,163,2.2,2.7,49,0.00,,---,0.00,VWS V14.01,2013-04-11 11:19:00,
2013-04-11 06:21:00,62.1,43.2,27.96,SSE,150,2.7,2.7,50,0.00,,---,0.00,VWS V14.01,2013-04-11 11:21:00,
2013-04-11 06:22:00,62.1,43.2,27.96,SSE,150,3.1,3.1,50,0.00,,---,0.00,VWS V14.01,2013-04-11 11:22:00,
2013-04-11 06:23:00,62.1,43.2,27.96,SSE,150,3.1,3.1,50,0.00,,---,0.00,VWS V14.01,2013-04-11 11:23:00,
2013-04-11 06:24:00,62.1,43.2,27.96,South,177,3.1,3.1,50,0.00,,---,0.00,VWS V14.01,2013-04-11 11:24:00,
2013-04-11 06:26:00,62.1,43.2,27.96,South,177,2.7,3.1,50,0.00,,---,0.00,VWS V14.01,2013-04-11 11:26:00,
2013-04-11 06:27:00,62.2,43.4,27.96,South,176,3.6,3.6,50,0.00,,---,0.00,VWS V14.01,2013-04-11 11:27:00,
2013-04-11 06:28:00,62.2,43.4,27.96,South,190,3.1,3.6,50,0.00,,---,0.00,VWS V14.01,2013-04-11 11:28:00,
2013-04-11 06:29:00,62.2,43.4,27.96,South,189,2.7,3.1,50,0.00,,---,0.00,VWS V14.01,2013-04-11 11:29:00,
2013-04-11 06:31:00,62.2,43.4,27.96,SSE,168,4.0,4.0,50,0.00,,---,0.00,VWS V14.01,2013-04-11 11:31:00,
2013-04-11 06:32:00,62.2,43.4,27.96,SSE,161,4.0,4.0,50,0.00,,---,0.00,VWS V14.01,2013-04-11 11:32:00,
2013-04-11 06:33:00,62.2,43.4,27.96,SSE,161,4.0,4.0,50,0.00,,---,0.00,VWS V14.01,2013-04-11 11:33:00,
2013-04-11 06:34:00,62.2,43.4,27.96,South,176,3.1,4.0,50,0.00,,---,0.00,VWS V14.01,2013-04-11 11:34:00,
2013-04-11 06:36:00,62.2,43.4,27.96,South,177,3.1,3.1,50,0.00,,---,0.00,VWS V14.01,2013-04-11 11:36:00,
2013-04-11 06:37:00,62.2,43.4,27.96,South,182,3.1,3.1,50,0.00,,---,0.00,VWS V14.01,2013-04-11 11:37:00,
2013-04-11 06:38:00,62.2,43.4,27.96,South,182,3.1,3.1,50,0.00,,---,0.00,VWS V14.01,2013-04-11 11:38:00,
2013-04-11 06:39:00,62.6,43.7,27.96,South,189,4.0,4.0,50,0.00,,---,0.00,VWS V14.01,2013-04-11 11:39:00,
2013-04-11 06:41:00,62.6,43.7,27.99,South,185,2.7,2.7,50,0.00,,---,0.00,VWS V14.01,2013-04-11 11:41:00,
2013-04-11 06:43:00,62.6,43.7,27.99,South,188,3.1,3.6,50,0.00,,---,0.00,VWS V14.01,2013-04-11 11:43:00,
2013-04-11 06:44:00,62.6,43.7,27.99,South,183,4.0,4.0,50,0.00,,---,0.00,VWS V14.01,2013-04-11 11:44:00,
2013-04-11 06:47:00,62.6,43.7,27.99,SSW,195,4.0,4.0,50,0.00,,---,0.00,VWS V14.01,2013-04-11 11:47:00,
2013-04-11 06:48:00,62.6,43.7,27.99,NNE,25,2.2,4.0,50,0.00,,---,0.00,VWS V14.01,2013-04-11 11:48:00,
2013-04-11 06:49:00,62.8,43.9,27.99,South,171,3.1,3.1,50,0.00,,---,0.00,VWS V14.01,2013-04-11 11:49:00,
2013-04-11 06:52:00,62.8,43.9,27.99,SSE,165,2.7,2.7,50,0.00,,---,0.00,VWS V14.01,2013-04-11 11:52:00,
2013-04-11 06:53:00,62.8,43.9,27.99,South,184,3.6,3.6,50,0.00,,---,0.00,VWS V14.01,2013-04-11 11:53:00,
2013-04-11 06:55:00,62.8,43.9,27.99,SSE,168,7.6,7.6,50,0.00,,---,0.00,VWS V14.01,2013-04-11 11:55:00,
2013-04-11 06:57:00,63.0,44.0,27.99,South,170,3.6,3.6,50,0.00,,---,0.00,VWS V14.01,2013-04-11 11:57:00,
2013-04-11 06:58:00,63.0,44.0,27.99,SSE,168,5.4,5.4,50,0.00,,---,0.00,VWS V14.01,2013-04-11 11:58:00,
2013-04-11 07:00:00,63.1,44.2,27.99,South,184,4.0,5.8,50,0.00,,---,0.00,VWS V14.01,2013-04-11 12:00:00,
2013-04-11 07:02:00,63.1,44.2,27.99,South,179,4.9,4.9,50,0.00,,---,0.00,VWS V14.01,2013-04-11 12:02:00,
2013-04-11 07:03:00,63.1,44.2,27.99,South,179,4.9,4.9,50,0.00,,---,0.00,VWS V14.01,2013-04-11 12:03:00,
2013-04-11 07:05:00,63.1,44.2,27.99,SSE,164,3.1,3.6,50,0.00,,---,0.00,VWS V14.01,2013-04-11 12:05:00,
2013-04-11 07:08:00,63.3,43.8,27.99,South,173,3.6,4.0,49,0.00,,---,0.00,VWS V14.01,2013-04-11 12:08:00,
2013-04-11 07:10:00,63.5,44.0,27.99,SSE,164,3.1,3.6,49,0.00,,---,0.00,VWS V14.01,2013-04-11 12:10:00,
2013-04-11 07:13:00,63.5,44.0,27.99,SSE,160,4.0,4.0,49,0.00,,---,0.00,VWS V14.01,2013-04-11 12:13:00,
2013-04-11 07:15:00,63.7,44.2,27.99,SSE,164,4.0,4.0,49,0.00,,---,0.00,VWS V14.01,2013-04-11 12:15:00,
2013-04-11 07:18:00,63.7,44.2,27.99,South,170,4.0,4.0,49,0.00,,---,0.00,VWS V14.01,2013-04-11 12:18:00,
2013-04-11 07:20:00,63.9,44.3,27.99,South,178,3.6,3.6,49,0.00,,---,0.00,VWS V14.01,2013-04-11 12:20:00,
2013-04-11 07:23:00,63.9,44.3,27.99,South,169,6.3,6.7,49,0.00,,---,0.00,VWS V14.01,2013-04-11 12:23:00,
2013-04-11 07:25:00,63.9,44.3,27.99,SSE,158,4.9,4.9,49,0.00,,---,0.00,VWS V14.01,2013-04-11 12:25:00,
2013-04-11 07:28:00,64.0,44.0,27.99,South,191,6.3,7.6,48,0.00,,---,0.00,VWS V14.01,2013-04-11 12:28:00,
2013-04-11 07:30:00,64.0,44.0,27.99,SSE,159,7.6,7.6,48,0.00,,---,0.00,VWS V14.01,2013-04-11 12:30:00,
2013-04-11 07:33:00,64.2,44.1,27.99,SSE,158,8.1,8.1,48,0.00,,---,0.00,VWS V14.01,2013-04-11 12:33:00,
2013-04-11 07:36:00,64.4,44.3,27.99,South,169,5.8,5.8,48,0.00,,---,0.00,VWS V14.01,2013-04-11 12:36:00,
2013-04-11 07:38:00,64.4,43.8,27.99,SSE,162,6.3,6.3,47,0.00,,---,0.00,VWS V14.01,2013-04-11 12:38:00,
2013-04-11 07:41:00,64.6,43.9,27.99,SE,142,5.4,6.3,47,0.00,,---,0.00,VWS V14.01,2013-04-11 12:41:00,
2013-04-11 07:43:00,64.9,44.2,27.99,SSE,153,8.3,8.3,47,0.00,,---,0.00,VWS V14.01,2013-04-11 12:43:00,
2013-04-11 07:44:00,64.9,44.2,27.99,SSE,153,8.3,8.3,47,0.00,,---,0.00,VWS V14.01,2013-04-11 12:44:00,
2013-04-11 07:47:00,65.1,44.4,27.99,SSW,203,8.7,8.7,47,0.00,,---,0.00,VWS V14.01,2013-04-11 12:47:00,
2013-04-11 07:48:00,65.5,44.2,27.99,SSE,159,6.3,8.3,46,0.00,,---,0.00,VWS V14.01,2013-04-11 12:48:00,
2013-04-11 07:49:00,65.5,44.2,27.99,SSE,159,6.3,8.3,46,0.00,,---,0.00,VWS V14.01,2013-04-11 12:49:00,
2013-04-11 07:52:00,65.5,44.2,27.99,SE,143,5.4,5.4,46,0.00,,---,0.00,VWS V14.01,2013-04-11 12:52:00,
2013-04-11 07:54:00,66.0,44.1,27.99,SE,143,5.4,5.4,45,0.00,,---,0.00,VWS V14.01,2013-04-11 12:54:00,
2013-04-11 07:57:00,66.4,43.8,27.99,South,178,5.8,5.8,44,0.00,,---,0.00,VWS V14.01,2013-04-11 12:57:00,
2013-04-11 07:59:00,66.4,43.8,27.99,ESE,120,7.2,7.2,44,0.00,,---,0.00,VWS V14.01,2013-04-11 12:59:00,
2013-04-11 08:02:00,67.1,43.9,27.99,SSE,154,4.9,4.9,43,0.00,,---,0.00,VWS V14.01,2013-04-11 13:02:00,
2013-04-11 08:04:00,67.1,43.9,27.99,SSE,154,4.9,4.9,43,0.00,,---,0.00,VWS V14.01,2013-04-11 13:04:00,
2013-04-11 08:08:00,67.6,44.4,27.99,SSE,153,5.8,8.1,43,0.00,,---,0.00,VWS V14.01,2013-04-11 13:08:00,
2013-04-11 08:09:00,67.6,44.4,27.99,SSE,167,5.4,8.1,43,0.00,,---,0.00,VWS V14.01,2013-04-11 13:09:00,
2013-04-11 08:13:00,67.8,43.3,27.94,South,177,6.7,6.7,41,0.00,,---,0.00,VWS V14.01,2013-04-11 13:13:00,
2013-04-11 08:14:00,67.8,43.3,27.94,SSE,160,8.3,8.3,41,0.00,,---,0.00,VWS V14.01,2013-04-11 13:14:00,
2013-04-11 08:18:00,67.8,42.6,27.94,SSE,164,6.7,6.7,40,0.00,,---,0.00,VWS V14.01,2013-04-11 13:18:00,
2013-04-11 08:19:00,67.8,42.6,27.94,SSE,164,6.7,6.7,40,0.00,,---,0.00,VWS V14.01,2013-04-11 13:19:00,
2013-04-11 08:23:00,67.6,42.5,27.94,SSW,212,8.3,8.3,40,0.00,,---,0.00,VWS V14.01,2013-04-11 13:23:00,
2013-04-11 08:24:00,67.6,42.5,27.94,SSE,166,11.0,11.0,40,0.00,,---,0.00,VWS V14.01,2013-04-11 13:24:00,
2013-04-11 08:28:00,67.6,43.1,27.94,South,170,5.8,5.8,41,0.00,,---,0.00,VWS V14.01,2013-04-11 13:28:00,
2013-04-11 08:29:00,67.6,43.1,27.94,South,170,6.3,6.3,41,0.00,,---,0.00,VWS V14.01,2013-04-11 13:29:00,
2013-04-11 08:33:00,67.6,42.5,27.96,South,185,10.5,11.0,40,0.00,,---,0.00,VWS V14.01,2013-04-11 13:33:00,
2013-04-11 08:34:00,67.6,42.5,27.96,South,183,5.4,10.5,40,0.00,,---,0.00,VWS V14.01,2013-04-11 13:34:00,
2013-04-11 08:35:00,67.6,41.8,27.96,South,183,5.4,10.5,39,0.00,,---,0.00,VWS V14.01,2013-04-11 13:35:00,
2013-04-11 08:38:00,67.6,41.8,27.96,SSE,156,3.6,3.6,39,0.00,,---,0.00,VWS V14.01,2013-04-11 13:38:00,
2013-04-11 08:39:00,67.6,42.5,27.96,East,98,6.3,6.3,40,0.00,,---,0.00,VWS V14.01,2013-04-11 13:39:00,
2013-04-11 08:40:00,67.6,42.5,27.96,East,98,6.3,6.3,40,0.00,,---,0.00,VWS V14.01,2013-04-11 13:40:00,
2013-04-11 08:44:00,67.6,43.1,27.96,South,175,11.0,11.0,41,0.00,,---,0.00,VWS V14.01,2013-04-11 13:44:00,
2013-04-11 08:45:00,68.0,42.8,27.96,SSE,154,6.3,11.0,40,0.00,,---,0.00,VWS V14.01,2013-04-11 13:45:00,
2013-04-11 08:49:00,68.4,41.8,27.96,SSE,162,5.8,5.8,38,0.00,,---,0.00,VWS V14.01,2013-04-11 13:49:00,
2013-04-11 08:50:00,68.4,41.8,27.96,SSE,154,5.4,5.4,38,0.00,,---,0.00,VWS V14.01,2013-04-11 13:50:00,
2013-04-11 08:54:00,68.5,41.3,27.96,SSE,158,6.3,7.6,37,0.00,,---,0.00,VWS V14.01,2013-04-11 13:54:00,
2013-04-11 08:55:00,68.5,41.3,27.96,ESE,119,6.3,6.3,37,0.00,,---,0.00,VWS V14.01,2013-04-11 13:55:00,
2013-04-11 08:59:00,69.4,42.8,27.99,SSE,151,10.5,10.5,38,0.00,,---,0.00,VWS V14.01,2013-04-11 13:59:00,
2013-04-11 09:00:00,69.4,42.8,27.99,SE,137,8.7,10.5,38,0.00,,---,0.00,VWS V14.01,2013-04-11 14:00:00,
2013-04-11 09:04:00,70.7,41.0,27.99,SSE,147,8.3,10.5,34,0.00,,---,0.00,VWS V14.01,2013-04-11 14:04:00,
2013-04-11 09:05:00,71.2,40.7,27.99,SE,133,10.1,10.5,33,0.00,,---,0.00,VWS V14.01,2013-04-11 14:05:00,
2013-04-11 09:06:00,71.2,40.7,27.99,SE,133,10.1,10.1,33,0.00,,---,0.00,VWS V14.01,2013-04-11 14:06:00,
2013-04-11 09:09:00,71.8,41.2,27.99,West,265,6.3,6.3,33,0.00,,---,0.00,VWS V14.01,2013-04-11 14:09:00,
2013-04-11 09:10:00,71.8,40.4,27.99,West,265,6.3,6.3,32,0.00,,---,0.00,VWS V14.01,2013-04-11 14:10:00,
2013-04-11 09:11:00,71.8,40.4,27.99,South,178,10.5,10.5,32,0.00,,---,0.00,VWS V14.01,2013-04-11 14:11:00,
2013-04-11 09:14:00,71.6,41.0,27.99,SSW,193,5.8,5.8,33,0.00,,---,0.00,VWS V14.01,2013-04-11 14:14:00,
2013-04-11 09:15:00,71.6,40.2,27.99,SSW,197,8.7,8.7,32,0.00,,---,0.00,VWS V14.01,2013-04-11 14:15:00,
2013-04-11 09:16:00,71.6,40.2,27.99,SSE,166,12.3,12.3,32,0.00,,---,0.00,VWS V14.01,2013-04-11 14:16:00,
2013-04-11 09:17:00,71.6,40.2,27.99,South,170,5.8,12.3,32,0.00,,---,0.00,VWS V14.01,2013-04-11 14:17:00,
2013-04-11 09:19:00,72.0,40.5,27.99,SSE,168,16.3,16.3,32,0.00,,---,0.00,VWS V14.01,2013-04-11 14:19:00,
2013-04-11 09:20:00,72.0,40.5,27.99,South,173,13.2,13.2,32,0.00,,---,0.00,VWS V14.01,2013-04-11 14:20:00,
2013-04-11 09:21:00,72.0,40.5,27.99,SE,137,14.5,14.5,32,0.00,,---,0.00,VWS V14.01,2013-04-11 14:21:00,
2013-04-11 09:22:00,72.0,40.5,27.99,South,188,10.5,10.5,32,0.00,,---,0.00,VWS V14.01,2013-04-11 14:22:00,
2013-04-11 09:24:00,72.0,40.5,27.99,SSE,168,10.5,10.5,32,0.00,,---,0.00,VWS V14.01,2013-04-11 14:24:00,
2013-04-11 09:25:00,72.1,41.5,27.99,SW,215,11.0,11.0,33,0.00,,---,0.00,VWS V14.01,2013-04-11 14:25:00,
2013-04-11 09:26:00,72.1,41.5,27.99,SSW,203,5.4,11.0,33,0.00,,---,0.00,VWS V14.01,2013-04-11 14:26:00,
2013-04-11 09:28:00,72.3,41.6,27.99,SE,141,7.6,7.6,33,0.00,,---,0.00,VWS V14.01,2013-04-11 14:28:00,
2013-04-11 09:30:00,72.5,41.0,27.99,SSE,168,9.6,9.6,32,0.00,,---,0.00,VWS V14.01,2013-04-11 14:30:00,
2013-04-11 09:31:00,72.9,42.1,27.99,East,96,4.9,9.6,33,0.00,,---,0.00,VWS V14.01,2013-04-11 14:31:00,
2013-04-11 09:33:00,73.0,41.5,27.99,East,96,4.9,4.9,32,0.00,,---,0.00,VWS V14.01,2013-04-11 14:33:00,
2013-04-11 09:35:00,73.0,41.5,27.99,SSE,163,8.7,8.7,32,0.00,,---,0.00,VWS V14.01,2013-04-11 14:35:00,
2013-04-11 09:36:00,73.4,41.8,27.99,South,172,14.5,14.5,32,0.00,,---,0.00,VWS V14.01,2013-04-11 14:36:00,
2013-04-11 09:38:00,73.4,41.8,27.99,South,188,8.1,8.1,32,0.00,,---,0.00,VWS V14.01,2013-04-11 14:38:00,
2013-04-11 09:40:00,73.9,42.2,27.99,SSE,147,8.7,8.7,32,0.00,,---,0.00,VWS V14.01,2013-04-11 14:40:00,
2013-04-11 09:41:00,73.9,42.2,27.99,South,184,8.3,8.7,32,0.00,,---,0.00,VWS V14.01,2013-04-11 14:41:00,
2013-04-11 09:43:00,74.1,41.6,27.96,North,353,5.4,8.3,31,0.00,,---,0.00,VWS V14.01,2013-04-11 14:43:00,
2013-04-11 09:45:00,74.1,41.6,27.96,South,169,8.1,8.1,31,0.00,,---,0.00,VWS V14.01,2013-04-11 14:45:00,
2013-04-11 09:46:00,74.1,41.6,27.96,South,169,8.1,8.1,31,0.00,,---,0.00,VWS V14.01,2013-04-11 14:46:00,
2013-04-11 09:48:00,73.9,41.4,27.96,SE,145,12.8,12.8,31,0.00,,---,0.00,VWS V14.01,2013-04-11 14:48:00,
2013-04-11 09:50:00,73.9,41.4,27.96,SE,131,8.1,8.1,31,0.00,,---,0.00,VWS V14.01,2013-04-11 14:50:00,
2013-04-11 09:51:00,73.9,41.4,27.96,South,180,8.3,8.3,31,0.00,,---,0.00,VWS V14.01,2013-04-11 14:51:00,
2013-04-11 09:52:00,73.9,41.4,27.96,South,180,8.3,8.3,31,0.00,,---,0.00,VWS V14.01,2013-04-11 14:52:00,
2013-04-11 09:53:00,73.8,41.3,27.96,South,175,16.3,16.3,31,0.00,,---,0.00,VWS V14.01,2013-04-11 14:53:00,
2013-04-11 09:55:00,73.8,41.3,27.96,South,171,11.0,16.3,31,0.00,,---,0.00,VWS V14.01,2013-04-11 14:55:00,
2013-04-11 09:56:00,73.9,41.4,27.96,South,171,11.0,11.0,31,0.00,,---,0.00,VWS V14.01,2013-04-11 14:56:00,
2013-04-11 09:57:00,73.8,41.3,27.96,South,171,11.0,11.0,31,0.00,,---,0.00,VWS V14.01,2013-04-11 14:57:00,
2013-04-11 09:58:00,73.8,41.3,27.96,NE,42,14.5,14.5,31,0.00,,---,0.00,VWS V14.01,2013-04-11 14:58:00,
2013-04-11 10:00:00,73.9,41.4,27.96,South,184,8.7,14.5,31,0.00,,---,0.00,VWS V14.01,2013-04-11 15:00:00,
2013-04-11 10:01:00,73.9,41.4,27.96,South,184,8.7,8.7,31,0.00,,---,0.00,VWS V14.01,2013-04-11 15:01:00,
2013-04-11 10:02:00,74.1,41.6,27.96,SSE,154,11.0,12.8,31,0.00,,---,0.00,VWS V14.01,2013-04-11 15:02:00,
2013-04-11 10:03:00,74.1,41.6,27.96,SSE,166,13.2,13.2,31,0.00,,---,0.00,VWS V14.01,2013-04-11 15:03:00,
2013-04-11 10:05:00,74.1,41.6,27.96,SSE,167,4.0,11.0,31,0.00,,---,0.00,VWS V14.01,2013-04-11 15:05:00,
2013-04-11 10:06:00,74.1,41.6,27.96,SSE,152,8.1,13.6,31,0.00,,---,0.00,VWS V14.01,2013-04-11 15:06:00,
2013-04-11 10:07:00,74.1,41.6,27.96,South,190,6.3,13.6,31,0.00,,---,0.00,VWS V14.01,2013-04-11 15:07:00,
2013-04-11 10:09:00,74.5,41.9,27.96,North,353,4.0,7.6,31,0.00,,---,0.00,VWS V14.01,2013-04-11 15:09:00,
2013-04-11 10:10:00,74.5,41.9,27.96,SSE,159,10.1,10.1,31,0.00,,---,0.00,VWS V14.01,2013-04-11 15:10:00,
2013-04-11 10:12:00,75.0,42.4,27.96,SSE,166,8.3,8.3,31,0.00,,---,0.00,VWS V14.01,2013-04-11 15:12:00,
2013-04-11 10:14:00,74.8,41.4,27.96,SSE,168,6.3,6.3,30,0.00,,---,0.00,VWS V14.01,2013-04-11 15:14:00,
2013-04-11 10:15:00,75.2,42.5,27.96,SSE,166,9.6,9.6,31,0.00,,---,0.00,VWS V14.01,2013-04-11 15:15:00,
2013-04-11 10:17:00,75.2,41.7,27.96,SSW,206,5.8,11.0,30,0.00,,---,0.00,VWS V14.01,2013-04-11 15:17:00,
2013-04-11 10:19:00,75.6,42.0,27.96,South,176,11.0,11.0,30,0.00,,---,0.00,VWS V14.01,2013-04-11 15:19:00,
2013-04-11 10:20:00,75.4,41.0,27.96,SSW,201,3.1,10.1,29,0.00,,---,0.00,VWS V14.01,2013-04-11 15:20:00,
2013-04-11 10:22:00,75.4,41.0,27.96,SSE,152,8.1,8.1,29,0.00,,---,0.00,VWS V14.01,2013-04-11 15:22:00,
2013-04-11 10:24:00,75.2,41.7,27.96,South,170,8.1,8.1,30,0.00,,---,0.00,VWS V14.01,2013-04-11 15:24:00,
2013-04-11 10:25:00,74.8,41.4,27.96,South,183,8.3,10.5,30,0.00,,---,0.00,VWS V14.01,2013-04-11 15:25:00,
2013-04-11 10:27:00,74.8,41.4,27.94,SE,143,5.8,11.4,30,0.00,,---,0.00,VWS V14.01,2013-04-11 15:27:00,
2013-04-11 10:28:00,74.8,41.4,27.94,SE,143,5.8,5.8,30,0.00,,---,0.00,VWS V14.01,2013-04-11 15:28:00,
2013-04-11 10:29:00,74.5,41.9,27.94,South,171,10.1,10.1,31,0.00,,---,0.00,VWS V14.01,2013-04-11 15:29:00,
2013-04-11 10:30:00,74.5,41.9,27.94,South,177,12.8,12.8,31,0.00,,---,0.00,VWS V14.01,2013-04-11 15:30:00,
2013-04-11 10:32:00,74.5,41.9,27.94,SSE,153,8.3,12.3,31,0.00,,---,0.00,VWS V14.01,2013-04-11 15:32:00,
2013-04-11 10:33:00,74.5,41.9,27.94,SSE,168,12.3,12.3,31,0.00,,---,0.00,VWS V14.01,2013-04-11 15:33:00,
2013-04-11 10:34:00,74.7,42.0,27.94,South,170,8.7,12.8,31,0.00,,---,0.00,VWS V14.01,2013-04-11 15:34:00,
2013-04-11 10:35:00,75.0,42.4,27.94,South,170,8.7,8.7,31,0.00,,---,0.00,VWS V14.01,2013-04-11 15:35:00,
2013-04-11 10:37:00,75.0,42.4,27.94,South,171,8.3,12.3,31,0.00,,---,0.00,VWS V14.01,2013-04-11 15:37:00,
2013-04-11 10:38:00,75.0,42.4,27.94,SE,146,15.0,15.0,31,0.00,,---,0.00,VWS V14.01,2013-04-11 15:38:00,
2013-04-11 10:39:00,75.2,40.8,27.94,SSE,147,15.0,15.0,29,0.00,,---,0.00,VWS V14.01,2013-04-11 15:39:00,
2013-04-11 10:40:00,75.4,41.0,27.94,SSE,147,15.0,15.0,29,0.00,,---,0.00,VWS V14.01,2013-04-11 15:40:00,
2013-04-11 10:42:00,75.4,41.0,27.96,South,172,12.8,12.8,29,0.00,,---,0.00,VWS V14.01,2013-04-11 15:42:00,
2013-04-11 10:43:00,75.6,41.1,27.96,South,172,12.8,12.8,29,0.00,,---,0.00,VWS V14.01,2013-04-11 15:43:00,
2013-04-11 10:44:00,75.6,41.1,27.96,SSE,166,8.7,8.7,29,0.00,,---,0.00,VWS V14.01,2013-04-11 15:44:00,
2013-04-11 10:46:00,75.9,43.1,27.96,South,172,8.3,8.3,31,0.00,,---,0.00,VWS V14.01,2013-04-11 15:46:00,
2013-04-11 10:48:00,76.3,41.7,27.96,South,184,9.6,9.6,29,0.00,,---,0.00,VWS V14.01,2013-04-11 15:48:00,
2013-04-11 10:49:00,76.6,41.1,27.96,SSE,150,8.7,8.7,28,0.00,,---,0.00,VWS V14.01,2013-04-11 15:49:00,
2013-04-11 10:51:00,76.3,39.9,27.96,SW,216,10.1,10.1,27,0.00,,---,0.00,VWS V14.01,2013-04-11 15:51:00,
2013-04-11 10:53:00,76.3,39.9,27.96,SE,130,15.4,15.4,27,0.00,,---,0.00,VWS V14.01,2013-04-11 15:53:00,
2013-04-11 10:54:00,76.3,39.9,27.96,SE,130,15.4,15.4,27,0.00,,---,0.00,VWS V14.01,2013-04-11 15:54:00,
2013-04-11 11:01:00,75.6,39.3,27.94,SSE,156,13.2,13.2,27,0.00,,---,0.00,VWS V14.01,2013-04-11 16:01:00,
2013-04-11 11:02:00,75.2,39.0,27.94,SE,145,11.0,11.0,27,0.00,,---,0.00,VWS V14.01,2013-04-11 16:02:00,
2013-04-11 11:06:00,76.3,42.6,27.94,South,180,9.2,9.2,30,0.00,,---,0.00,VWS V14.01,2013-04-11 16:06:00,
2013-04-11 11:07:00,76.3,42.6,27.94,South,180,9.2,9.2,30,0.00,,---,0.00,VWS V14.01,2013-04-11 16:07:00,
2013-04-11 11:12:00,77.0,43.2,27.94,ESE,111,5.4,15.0,30,0.00,,---,0.00,VWS V14.01,2013-04-11 16:12:00,
2013-04-11 11:17:00,77.0,39.5,27.94,SSE,159,14.5,14.5,26,0.00,,---,0.00,VWS V14.01,2013-04-11 16:17:00,
2013-04-11 11:18:00,77.0,39.5,27.94,SSE,159,14.5,14.5,26,0.00,,---,0.00,VWS V14.01,2013-04-11 16:18:00,
2013-04-11 11:22:00,77.0,39.5,27.94,SSE,167,8.7,8.7,26,0.00,,---,0.00,VWS V14.01,2013-04-11 16:22:00,
2013-04-11 11:23:00,77.0,39.5,27.94,SSE,167,8.7,8.7,26,0.00,,---,0.00,VWS V14.01,2013-04-11 16:23:00,
2013-04-11 11:27:00,77.7,40.1,27.96,SSE,160,13.2,13.2,26,0.00,,---,0.00,VWS V14.01,2013-04-11 16:27:00,
2013-04-11 11:28:00,77.7,40.1,27.96,SSE,160,13.2,13.2,26,0.00,,---,0.00,VWS V14.01,2013-04-11 16:28:00,
2013-04-11 11:32:00,77.7,39.1,27.96,SSE,168,13.2,13.2,25,0.00,,---,0.00,VWS V14.01,2013-04-11 16:32:00,
2013-04-11 11:33:00,77.7,39.1,27.96,SSE,168,13.2,13.2,25,0.00,,---,0.00,VWS V14.01,2013-04-11 16:33:00,
2013-04-11 11:38:00,78.1,43.3,27.96,SSE,159,10.5,10.5,29,0.00,,---,0.00,VWS V14.01,2013-04-11 16:38:00,
2013-04-11 11:43:00,76.8,39.4,27.94,South,180,10.5,18.3,26,0.00,,---,0.00,VWS V14.01,2013-04-11 16:43:00,
2013-04-11 11:48:00,76.6,41.1,27.94,SSE,165,12.8,12.8,28,0.00,,---,0.00,VWS V14.01,2013-04-11 16:48:00,
2013-04-11 11:53:00,75.7,41.3,27.94,South,172,8.1,8.1,29,0.00,,---,0.00,VWS V14.01,2013-04-11 16:53:00,
2013-04-11 11:54:00,75.7,41.3,27.94,South,172,8.1,8.1,29,0.00,,---,0.00,VWS V14.01,2013-04-11 16:54:00,
2013-04-11 11:58:00,75.6,41.1,27.94,South,180,5.4,5.4,29,0.00,,---,0.00,VWS V14.01,2013-04-11 16:58:00,
2013-04-11 11:59:00,75.6,41.1,27.94,South,180,5.4,5.4,29,0.00,,---,0.00,VWS V14.01,2013-04-11 16:59:00,
2013-04-11 12:04:00,75.6,42.0,27.94,South,171,7.2,8.3,30,0.00,,---,0.00,VWS V14.01,2013-04-11 17:04:00,
2013-04-11 12:09:00,77.0,42.3,27.94,South,181,8.1,8.1,29,0.00,,---,0.00,VWS V14.01,2013-04-11 17:09:00,
2013-04-11 12:14:00,77.0,40.5,27.91,SSE,163,10.1,10.1,27,0.00,,---,0.00,VWS V14.01,2013-04-11 17:14:00,
2013-04-11 12:19:00,76.3,39.9,27.91,SSE,167,5.8,9.2,27,0.00,,---,0.00,VWS V14.01,2013-04-11 17:19:00,
2013-04-11 12:20:00,76.3,41.7,27.91,SSE,167,5.8,5.8,29,0.00,,---,0.00,VWS V14.01,2013-04-11 17:20:00,
2013-04-11 12:24:00,75.6,42.0,27.91,South,183,10.1,10.1,30,0.00,,---,0.00,VWS V14.01,2013-04-11 17:24:00,
2013-04-11 12:25:00,75.2,41.7,27.91,South,183,10.1,10.1,30,0.00,,---,0.00,VWS V14.01,2013-04-11 17:25:00,
2013-04-11 12:29:00,75.2,41.7,27.91,WSW,248,7.2,8.7,30,0.00,,---,0.00,VWS V14.01,2013-04-11 17:29:00,
2013-04-11 12:30:00,74.5,41.9,27.91,WSW,248,7.2,7.2,31,0.00,,---,0.00,VWS V14.01,2013-04-11 17:30:00,
2013-04-11 12:34:00,74.5,41.9,27.91,SSE,168,5.8,5.8,31,0.00,,---,0.00,VWS V14.01,2013-04-11 17:34:00,
2013-04-11 12:35:00,74.5,41.9,27.91,SSE,163,5.4,5.8,31,0.00,,---,0.00,VWS V14.01,2013-04-11 17:35:00,
2013-04-11 12:39:00,74.7,42.0,27.88,SSE,162,5.4,6.3,31,0.00,,---,0.00,VWS V14.01,2013-04-11 17:39:00,
2013-04-11 12:40:00,74.7,42.0,27.88,South,174,5.4,6.3,31,0.00,,---,0.00,VWS V14.01,2013-04-11 17:40:00,
2013-04-11 12:44:00,74.8,42.2,27.88,SSW,199,8.1,8.7,31,0.00,,---,0.00,VWS V14.01,2013-04-11 17:44:00,
2013-04-11 12:45:00,74.8,42.2,27.88,ESE,117,11.0,11.0,31,0.00,,---,0.00,VWS V14.01,2013-04-11 17:45:00,
2013-04-11 12:46:00,75.0,42.4,27.88,South,169,3.1,11.0,31,0.00,,---,0.00,VWS V14.01,2013-04-11 17:46:00,
2013-04-11 12:49:00,75.4,43.5,27.88,SSE,151,8.3,8.3,32,0.00,,---,0.00,VWS V14.01,2013-04-11 17:49:00,
2013-04-11 12:50:00,75.4,43.5,27.88,SSE,151,8.3,8.3,32,0.00,,---,0.00,VWS V14.01,2013-04-11 17:50:00,
2013-04-11 12:51:00,75.9,43.1,27.88,SSE,152,10.5,11.0,31,0.00,,---,0.00,VWS V14.01,2013-04-11 17:51:00,
2013-04-11 12:54:00,75.9,43.1,27.88,SSE,168,7.2,17.0,31,0.00,,---,0.00,VWS V14.01,2013-04-11 17:54:00,
2013-04-11 12:55:00,75.9,43.1,27.88,SSE,161,8.1,17.0,31,0.00,,---,0.00,VWS V14.01,2013-04-11 17:55:00,
2013-04-11 12:56:00,75.9,43.1,27.88,SSE,168,8.7,8.7,31,0.00,,---,0.00,VWS V14.01,2013-04-11 17:56:00,
2013-04-11 12:59:00,76.5,43.6,27.88,SE,145,6.7,6.7,31,0.00,,---,0.00,VWS V14.01,2013-04-11 17:59:00,
2013-04-11 13:00:00,76.5,43.6,27.88,SE,145,6.7,6.7,31,0.00,,---,0.00,VWS V14.01,2013-04-11 18:00:00,
2013-04-11 13:01:00,76.6,42.0,27.88,SE,145,6.7,6.7,29,0.00,,---,0.00,VWS V14.01,2013-04-11 18:01:00,
2013-04-11 13:04:00,76.5,42.8,27.88,South,181,11.9,11.9,30,0.00,,---,0.00,VWS V14.01,2013-04-11 18:04:00,
2013-04-11 13:05:00,76.5,42.8,27.88,South,170,6.3,6.3,30,0.00,,---,0.00,VWS V14.01,2013-04-11 18:05:00,
2013-04-11 13:06:00,76.5,42.8,27.88,SSE,154,7.6,7.6,30,0.00,,---,0.00,VWS V14.01,2013-04-11 18:06:00,
2013-04-11 13:07:00,76.5,41.9,27.88,SSE,154,7.6,7.6,29,0.00,,---,0.00,VWS V14.01,2013-04-11 18:07:00,
2013-04-11 13:10:00,76.5,42.8,27.88,South,173,10.5,10.5,30,0.00,,---,0.00,VWS V14.01,2013-04-11 18:10:00,
2013-04-11 13:11:00,76.5,43.6,27.88,ESE,120,5.8,6.3,31,0.00,,---,0.00,VWS V14.01,2013-04-11 18:11:00,
2013-04-11 13:12:00,76.5,43.6,27.88,SSE,163,10.5,10.5,31,0.00,,---,0.00,VWS V14.01,2013-04-11 18:12:00,
2013-04-11 13:15:00,76.5,43.6,27.88,SSE,159,8.1,8.1,31,0.00,,---,0.00,VWS V14.01,2013-04-11 18:15:00,
2013-04-11 13:17:00,76.8,42.2,27.88,SE,144,5.8,5.8,29,0.00,,---,0.00,VWS V14.01,2013-04-11 18:17:00,
2013-04-11 13:20:00,76.8,42.2,27.88,SSE,160,5.8,5.8,29,0.00,,---,0.00,VWS V14.01,2013-04-11 18:20:00,
2013-04-11 13:22:00,76.6,42.9,27.88,SSE,157,8.3,8.3,30,0.00,,---,0.00,VWS V14.01,2013-04-11 18:22:00,
2013-04-11 13:23:00,76.6,42.9,27.88,SSE,157,8.3,8.3,30,0.00,,---,0.00,VWS V14.01,2013-04-11 18:23:00,
2013-04-11 13:25:00,76.6,42.9,27.88,South,176,6.3,8.1,30,0.00,,---,0.00,VWS V14.01,2013-04-11 18:25:00,
2013-04-11 13:27:00,76.8,43.9,27.88,SSE,153,8.7,8.7,31,0.00,,---,0.00,VWS V14.01,2013-04-11 18:27:00,
2013-04-11 13:28:00,76.8,43.9,27.88,SSE,153,8.7,8.7,31,0.00,,---,0.00,VWS V14.01,2013-04-11 18:28:00,
2013-04-11 13:30:00,76.8,43.9,27.88,SSE,168,10.1,10.1,31,0.00,,---,0.00,VWS V14.01,2013-04-11 18:30:00,
2013-04-11 13:33:00,77.0,41.4,27.88,SSW,208,10.1,10.1,28,0.00,,---,0.00,VWS V14.01,2013-04-11 18:33:00,
2013-04-11 13:35:00,76.8,41.3,27.88,South,174,8.3,8.7,28,0.00,,---,0.00,VWS V14.01,2013-04-11 18:35:00,
2013-04-11 13:36:00,76.8,41.3,27.88,SSE,160,13.2,13.2,28,0.00,,---,0.00,VWS V14.01,2013-04-11 18:36:00,
2013-04-11 13:38:00,76.8,42.2,27.88,SSE,153,10.5,10.5,29,0.00,,---,0.00,VWS V14.01,2013-04-11 18:38:00,
2013-04-11 13:40:00,76.8,43.1,27.88,SE,145,5.8,5.8,30,0.00,,---,0.00,VWS V14.01,2013-04-11 18:40:00,
2013-04-11 13:41:00,76.8,43.1,27.88,SE,145,5.8,5.8,30,0.00,,---,0.00,VWS V14.01,2013-04-11 18:41:00,
2013-04-11 13:43:00,77.0,43.2,27.88,SSE,154,6.3,6.3,30,0.00,,---,0.00,VWS V14.01,2013-04-11 18:43:00,
2013-04-11 13:45:00,77.0,43.2,27.88,SE,141,6.3,6.3,30,0.00,,---,0.00,VWS V14.01,2013-04-11 18:45:00,
2013-04-11 13:46:00,77.0,43.2,27.88,SSE,161,15.0,15.0,30,0.00,,---,0.00,VWS V14.01,2013-04-11 18:46:00,
2013-04-11 13:48:00,77.0,43.2,27.88,SSE,165,6.3,6.3,30,0.00,,---,0.00,VWS V14.01,2013-04-11 18:48:00,
2013-04-11 13:50:00,77.0,43.2,27.82,SSE,148,5.4,5.4,30,0.00,,---,0.00,VWS V14.01,2013-04-11 18:50:00,
2013-04-11 13:51:00,77.0,43.2,27.82,SSE,148,5.4,5.4,30,0.00,,---,0.00,VWS V14.01,2013-04-11 18:51:00,
2013-04-11 13:53:00,76.6,41.1,27.82,SE,139,6.3,6.3,28,0.00,,---,0.00,VWS V14.01,2013-04-11 18:53:00,
2013-04-11 13:55:00,76.5,42.8,27.79,SSE,151,6.3,10.5,30,0.00,,---,0.00,VWS V14.01,2013-04-11 18:55:00,
2013-04-11 13:56:00,76.3,42.6,27.79,South,176,8.1,8.1,30,0.00,,---,0.00,VWS V14.01,2013-04-11 18:56:00,
2013-04-11 13:58:00,76.3,42.6,27.79,South,185,10.5,10.5,30,0.00,,---,0.00,VWS V14.01,2013-04-11 18:58:00,
2013-04-11 14:01:00,76.1,41.6,27.79,South,186,11.0,11.0,29,0.00,,---,0.00,VWS V14.01,2013-04-11 19:01:00,
2013-04-11 14:02:00,76.1,41.6,27.79,SE,145,6.3,8.1,29,0.00,,---,0.00,VWS V14.01,2013-04-11 19:02:00,
2013-04-11 14:03:00,76.1,41.6,27.79,SE,145,6.3,6.3,29,0.00,,---,0.00,VWS V14.01,2013-04-11 19:03:00,
2013-04-11 14:06:00,76.1,41.6,27.79,SE,137,8.3,8.3,29,0.00,,---,0.00,VWS V14.01,2013-04-11 19:06:00,
2013-04-11 14:07:00,76.3,42.6,27.79,South,170,5.4,8.1,30,0.00,,---,0.00,VWS V14.01,2013-04-11 19:07:00,
2013-04-11 14:08:00,76.3,42.6,27.79,SSE,166,6.3,6.3,30,0.00,,---,0.00,VWS V14.01,2013-04-11 19:08:00,
2013-04-11 14:09:00,76.3,42.6,27.79,SSE,166,6.3,6.3,30,0.00,,---,0.00,VWS V14.01,2013-04-11 19:09:00,
2013-04-11 14:11:00,76.5,41.9,27.79,South,182,8.1,8.1,29,0.00,,---,0.00,VWS V14.01,2013-04-11 19:11:00,
2013-04-11 14:13:00,76.6,42.0,27.79,South,180,10.5,10.5,29,0.00,,---,0.00,VWS V14.01,2013-04-11 19:13:00,
2013-04-11 14:14:00,77.0,43.2,27.79,South,180,10.5,10.5,30,0.00,,---,0.00,VWS V14.01,2013-04-11 19:14:00,
2013-04-11 14:17:00,77.2,41.6,27.79,South,171,8.7,10.1,28,0.00,,---,0.00,VWS V14.01,2013-04-11 19:17:00,
2013-04-11 14:18:00,77.5,41.9,27.79,SSE,158,11.0,11.0,28,0.00,,---,0.00,VWS V14.01,2013-04-11 19:18:00,
2013-04-11 14:19:00,77.5,41.9,27.79,SE,136,8.1,11.0,28,0.00,,---,0.00,VWS V14.01,2013-04-11 19:19:00,
2013-04-11 14:22:00,77.9,40.3,27.79,ESE,120,11.0,11.0,26,0.00,,---,0.00,VWS V14.01,2013-04-11 19:22:00,
2013-04-11 14:23:00,77.9,40.3,27.79,SSE,165,8.7,11.0,26,0.00,,---,0.00,VWS V14.01,2013-04-11 19:23:00,
2013-04-11 14:24:00,78.3,40.6,27.79,South,179,8.7,8.7,26,0.00,,---,0.00,VWS V14.01,2013-04-11 19:24:00,
2013-04-11 14:27:00,78.3,40.6,27.79,SSW,194,13.2,13.2,26,0.00,,---,0.00,VWS V14.01,2013-04-11 19:27:00,
2013-04-11 14:28:00,78.3,40.6,27.79,SSE,161,8.3,13.2,26,0.00,,---,0.00,VWS V14.01,2013-04-11 19:28:00,
2013-04-11 14:29:00,78.4,39.7,27.79,SSE,161,8.3,8.3,25,0.00,,---,0.00,VWS V14.01,2013-04-11 19:29:00,
2013-04-11 14:32:00,78.4,40.8,27.79,South,179,8.1,8.1,26,0.00,,---,0.00,VWS V14.01,2013-04-11 19:32:00,
2013-04-11 14:33:00,78.4,40.8,27.79,SSW,193,8.3,8.3,26,0.00,,---,0.00,VWS V14.01,2013-04-11 19:33:00,
2013-04-11 14:34:00,78.4,40.8,27.79,South,178,10.5,10.5,26,0.00,,---,0.00,VWS V14.01,2013-04-11 19:34:00,
2013-04-11 14:35:00,78.4,41.7,27.79,SSE,158,7.6,10.5,27,0.00,,---,0.00,VWS V14.01,2013-04-11 19:35:00,
2013-04-11 14:37:00,78.3,40.6,27.79,SSE,151,12.8,12.8,26,0.00,,---,0.00,VWS V14.01,2013-04-11 19:37:00,
2013-04-11 14:38:00,78.3,40.6,27.79,SSE,151,12.8,12.8,26,0.00,,---,0.00,VWS V14.01,2013-04-11 19:38:00,
2013-04-11 14:39:00,78.3,40.6,27.79,South,169,14.5,14.5,26,0.00,,---,0.00,VWS V14.01,2013-04-11 19:39:00,
2013-04-11 14:40:00,78.1,40.4,27.79,SSE,159,17.0,17.0,26,0.00,,---,0.00,VWS V14.01,2013-04-11 19:40:00,
2013-04-11 14:43:00,78.1,40.4,27.79,SSE,161,14.5,14.5,26,0.00,,---,0.00,VWS V14.01,2013-04-11 19:43:00,
2013-04-11 14:44:00,77.9,42.2,27.79,SSE,167,8.7,8.7,28,0.00,,---,0.00,VWS V14.01,2013-04-11 19:44:00,
2013-04-11 14:45:00,77.9,42.2,27.79,SSE,158,8.1,9.2,28,0.00,,---,0.00,VWS V14.01,2013-04-11 19:45:00,
2013-04-11 14:48:00,77.9,44.0,27.79,South,181,11.0,12.3,30,0.00,,---,0.00,VWS V14.01,2013-04-11 19:48:00,
2013-04-11 14:49:00,77.9,44.0,27.79,South,172,11.0,11.0,30,0.00,,---,0.00,VWS V14.01,2013-04-11 19:49:00,
2013-04-11 14:50:00,77.4,41.7,27.79,SSE,167,12.8,12.8,28,0.00,,---,0.00,VWS V14.01,2013-04-11 19:50:00,
2013-04-11 14:53:00,77.0,42.3,27.79,South,169,13.2,13.2,29,0.00,,---,0.00,VWS V14.01,2013-04-11 19:53:00,
2013-04-11 14:54:00,77.0,42.3,27.79,SE,141,15.0,15.0,29,0.00,,---,0.00,VWS V14.01,2013-04-11 19:54:00,
2013-04-11 14:55:00,77.0,42.3,27.79,SE,141,15.0,15.0,29,0.00,,---,0.00,VWS V14.01,2013-04-11 19:55:00,
2013-04-11 14:58:00,77.0,42.3,27.79,SE,144,5.8,8.3,29,0.00,,---,0.00,VWS V14.01,2013-04-11 19:58:00,
2013-04-11 15:00:00,77.0,42.3,27.79,SSW,194,8.7,10.5,29,0.00,,---,0.00,VWS V14.01,2013-04-11 20:00:00,
2013-04-11 15:03:00,76.1,43.3,27.79,South,176,13.2,13.2,31,0.00,,---,0.00,VWS V14.01,2013-04-11 20:03:00,
2013-04-11 15:05:00,75.7,43.0,27.79,SE,127,7.6,8.7,31,0.00,,---,0.00,VWS V14.01,2013-04-11 20:05:00,
2013-04-11 15:08:00,75.6,43.7,27.79,SSE,151,5.4,5.4,32,0.00,,---,0.00,VWS V14.01,2013-04-11 20:08:00,
2013-04-11 15:10:00,75.6,43.7,27.79,SSE,151,5.4,5.4,32,0.00,,---,0.00,VWS V14.01,2013-04-11 20:10:00,
2013-04-11 15:13:00,75.6,43.7,27.79,SSE,151,8.7,8.7,32,0.00,,---,0.00,VWS V14.01,2013-04-11 20:13:00,
2013-04-11 15:14:00,75.6,43.7,27.79,SSE,151,8.7,8.7,32,0.00,,---,0.00,VWS V14.01,2013-04-11 20:14:00,
2013-04-11 15:15:00,75.6,43.7,27.76,South,175,5.4,5.4,32,0.00,,---,0.00,VWS V14.01,2013-04-11 20:15:00,
2013-04-11 15:16:00,75.6,43.7,27.76,SSE,160,6.3,6.3,32,0.00,,---,0.00,VWS V14.01,2013-04-11 20:16:00,
2013-04-11 15:19:00,75.4,43.5,27.76,SSE,152,8.1,8.1,32,0.00,,---,0.00,VWS V14.01,2013-04-11 20:19:00,
2013-04-11 15:20:00,75.4,44.3,27.76,South,174,10.5,11.4,33,0.00,,---,0.00,VWS V14.01,2013-04-11 20:20:00,
2013-04-11 15:21:00,75.4,44.3,27.76,South,174,10.5,11.4,33,0.00,,---,0.00,VWS V14.01,2013-04-11 20:21:00,
2013-04-11 15:24:00,75.2,44.2,27.76,SW,223,4.0,4.0,33,0.00,,---,0.00,VWS V14.01,2013-04-11 20:24:00,
2013-04-11 15:25:00,75.2,44.2,27.76,SE,138,5.8,8.3,33,0.00,,---,0.00,VWS V14.01,2013-04-11 20:25:00,
2013-04-11 15:26:00,75.2,44.2,27.76,SE,138,5.8,8.3,33,0.00,,---,0.00,VWS V14.01,2013-04-11 20:26:00,
2013-04-11 15:29:00,75.2,43.3,27.76,South,178,8.3,8.3,32,0.00,,---,0.00,VWS V14.01,2013-04-11 20:29:00,
2013-04-11 15:30:00,75.2,43.3,27.76,SW,231,8.7,8.7,32,0.00,,---,0.00,VWS V14.01,2013-04-11 20:30:00,
2013-04-11 15:31:00,75.2,43.3,27.76,SW,231,8.7,8.7,32,0.00,,---,0.00,VWS V14.01,2013-04-11 20:31:00,
2013-04-11 15:34:00,75.2,43.3,27.76,SSE,160,8.7,10.1,32,0.00,,---,0.00,VWS V14.01,2013-04-11 20:34:00,
2013-04-11 15:35:00,75.2,44.2,27.76,SSE,160,8.7,8.7,33,0.00,,---,0.00,VWS V14.01,2013-04-11 20:35:00,
2013-04-11 15:36:00,75.2,44.2,27.76,SSE,160,8.7,8.7,33,0.00,,---,0.00,VWS V14.01,2013-04-11 20:36:00,
2013-04-11 15:39:00,75.0,44.0,27.76,SSE,149,6.3,6.3,33,0.00,,---,0.00,VWS V14.01,2013-04-11 20:39:00,
2013-04-11 15:40:00,75.0,44.0,27.76,SSE,162,5.8,5.8,33,0.00,,---,0.00,VWS V14.01,2013-04-11 20:40:00,
2013-04-11 15:41:00,75.0,44.0,27.76,SSE,164,11.0,11.0,33,0.00,,---,0.00,VWS V14.01,2013-04-11 20:41:00,
2013-04-11 15:44:00,74.8,43.8,27.76,SSW,211,5.8,5.8,33,0.00,,---,0.00,VWS V14.01,2013-04-11 20:44:00,
2013-04-11 15:45:00,74.8,43.8,27.76,SSE,147,4.5,10.5,33,0.00,,---,0.00,VWS V14.01,2013-04-11 20:45:00,
2013-04-11 15:47:00,74.8,43.8,27.76,South,189,5.8,5.8,33,0.00,,---,0.00,VWS V14.01,2013-04-11 20:47:00,
2013-04-11 15:49:00,74.8,43.8,27.76,SSE,166,5.8,5.8,33,0.00,,---,0.00,VWS V14.01,2013-04-11 20:49:00,
2013-04-11 15:51:00,74.8,43.8,27.76,SSE,166,5.8,5.8,33,0.00,,---,0.00,VWS V14.01,2013-04-11 20:51:00,
2013-04-11 15:52:00,74.8,43.8,27.76,South,189,12.3,12.3,33,0.00,,---,0.00,VWS V14.01,2013-04-11 20:52:00,
2013-04-11 15:54:00,75.0,44.8,27.76,South,170,5.4,5.4,34,0.00,,---,0.00,VWS V14.01,2013-04-11 20:54:00,
2013-04-11 15:56:00,75.0,44.8,27.76,SSE,152,5.8,7.6,34,0.00,,---,0.00,VWS V14.01,2013-04-11 20:56:00,
2013-04-11 15:57:00,75.0,44.8,27.73,South,175,11.0,11.0,34,0.00,,---,0.00,VWS V14.01,2013-04-11 20:57:00,
2013-04-11 15:59:00,74.8,44.6,27.73,South,175,9.6,9.6,34,0.00,,---,0.00,VWS V14.01,2013-04-11 20:59:00,
2013-04-11 16:01:00,74.8,44.6,27.73,South,175,9.6,9.6,34,0.00,,---,0.00,VWS V14.01,2013-04-11 21:01:00,
2013-04-11 16:02:00,74.7,44.5,27.73,SSW,201,7.6,7.6,34,0.00,,---,0.00,VWS V14.01,2013-04-11 21:02:00,
2013-04-11 16:04:00,74.5,44.3,27.73,SSE,164,10.1,10.1,34,0.00,,---,0.00,VWS V14.01,2013-04-11 21:04:00,
2013-04-11 16:05:00,74.5,44.3,27.73,SSE,164,10.1,10.1,34,0.00,,---,0.00,VWS V14.01,2013-04-11 21:05:00,
2013-04-11 16:06:00,74.5,44.3,27.73,SSE,166,5.8,5.8,34,0.00,,---,0.00,VWS V14.01,2013-04-11 21:06:00,
2013-04-11 16:07:00,74.5,44.3,27.73,SSE,164,8.1,8.1,34,0.00,,---,0.00,VWS V14.01,2013-04-11 21:07:00,
2013-04-11 16:09:00,74.3,44.1,27.73,South,181,8.1,8.1,34,0.00,,---,0.00,VWS V14.01,2013-04-11 21:09:00,
2013-04-11 16:10:00,74.3,44.1,27.73,South,181,8.1,8.1,34,0.00,,---,0.00,VWS V14.01,2013-04-11 21:10:00,
2013-04-11 16:11:00,74.3,44.9,27.73,SE,146,7.6,7.6,35,0.00,,---,0.00,VWS V14.01,2013-04-11 21:11:00,
2013-04-11 16:12:00,74.1,44.0,27.73,SSE,155,7.6,7.6,34,0.00,,---,0.00,VWS V14.01,2013-04-11 21:12:00,
2013-04-11 16:15:00,74.1,44.8,27.73,SSE,161,8.1,8.1,35,0.00,,---,0.00,VWS V14.01,2013-04-11 21:15:00,
2013-04-11 16:16:00,73.9,45.3,27.73,SSE,167,8.7,8.7,36,0.00,,---,0.00,VWS V14.01,2013-04-11 21:16:00,
2013-04-11 16:18:00,73.8,45.2,27.70,SSE,167,8.7,8.7,36,0.00,,---,0.00,VWS V14.01,2013-04-11 21:18:00,
2013-04-11 16:20:00,73.8,45.2,27.70,SSE,153,5.4,5.4,36,0.00,,---,0.00,VWS V14.01,2013-04-11 21:20:00,
2013-04-11 16:22:00,73.2,47.5,27.70,SSE,160,6.3,6.3,40,0.00,,---,0.00,VWS V14.01,2013-04-11 21:22:00,
2013-04-11 16:23:00,73.2,47.5,27.70,SE,140,5.8,10.1,40,0.00,,---,0.00,VWS V14.01,2013-04-11 21:23:00,
2013-04-11 16:25:00,73.2,47.5,27.70,SE,146,5.8,5.8,40,0.00,,---,0.00,VWS V14.01,2013-04-11 21:25:00,
2013-04-11 16:27:00,73.2,47.5,27.70,SE,146,5.8,5.8,40,0.00,,---,0.00,VWS V14.01,2013-04-11 21:27:00,
2013-04-11 16:28:00,73.2,47.5,27.70,SSE,154,4.9,4.9,40,0.00,,---,0.00,VWS V14.01,2013-04-11 21:28:00,
2013-04-11 16:30:00,73.2,47.5,27.70,South,170,5.8,5.8,40,0.00,,---,0.00,VWS V14.01,2013-04-11 21:30:00,
2013-04-11 16:31:00,73.2,47.5,27.70,South,170,5.8,5.8,40,0.00,,---,0.00,VWS V14.01,2013-04-11 21:31:00,
2013-04-11 16:32:00,72.1,49.0,27.70,SSE,153,5.8,8.3,44,0.00,,---,0.00,VWS V14.01,2013-04-11 21:32:00,
2013-04-11 16:34:00,72.0,48.9,27.70,SSE,154,6.3,6.3,44,0.00,,---,0.00,VWS V14.01,2013-04-11 21:34:00,
2013-04-11 16:35:00,71.8,49.3,27.70,SSE,163,3.6,3.6,45,0.00,,---,0.00,VWS V14.01,2013-04-11 21:35:00,
2013-04-11 16:36:00,71.8,49.3,27.70,SSE,163,3.6,3.6,45,0.00,,---,0.00,VWS V14.01,2013-04-11 21:36:00,
2013-04-11 16:37:00,71.8,49.3,27.70,SSE,163,3.6,3.6,45,0.00,,---,0.00,VWS V14.01,2013-04-11 21:37:00,
2013-04-11 16:39:00,71.8,49.9,27.70,ESE,122,5.8,5.8,46,0.00,,---,0.00,VWS V14.01,2013-04-11 21:39:00,
2013-04-11 16:41:00,71.6,49.8,27.70,SE,135,5.4,5.4,46,0.00,,---,0.00,VWS V14.01,2013-04-11 21:41:00,
2013-04-11 16:42:00,71.6,49.8,27.70,SSE,158,2.7,2.7,46,0.00,,---,0.00,VWS V14.01,2013-04-11 21:42:00,
2013-04-11 16:44:00,71.6,49.8,27.70,SSE,156,5.4,5.4,46,0.00,,---,0.00,VWS V14.01,2013-04-11 21:44:00,
2013-04-11 16:46:00,71.6,49.8,27.70,SSE,166,5.8,6.7,46,0.00,,---,0.00,VWS V14.01,2013-04-11 21:46:00,
2013-04-11 16:47:00,71.6,49.8,27.70,SSE,166,2.7,2.7,46,0.00,,---,0.00,VWS V14.01,2013-04-11 21:47:00,
2013-04-11 16:49:00,71.6,49.8,27.70,SSE,166,2.7,2.7,46,0.00,,---,0.00,VWS V14.01,2013-04-11 21:49:00,
2013-04-11 16:51:00,71.6,49.8,27.70,SSE,162,3.1,3.1,46,0.00,,---,0.00,VWS V14.01,2013-04-11 21:51:00,
2013-04-11 16:52:00,71.6,49.8,27.70,SSE,162,3.1,3.1,46,0.00,,---,0.00,VWS V14.01,2013-04-11 21:52:00,
2013-04-11 16:54:00,71.6,49.8,27.70,SSE,159,4.9,5.8,46,0.00,,---,0.00,VWS V14.01,2013-04-11 21:54:00,
2013-04-11 16:56:00,71.6,49.8,27.70,SSE,156,7.6,9.6,46,0.00,,---,0.00,VWS V14.01,2013-04-11 21:56:00,
2013-04-11 16:57:00,71.6,49.2,27.70,SSE,156,7.6,7.6,45,0.00,,---,0.00,VWS V14.01,2013-04-11 21:57:00,
2013-04-11 17:00:00,71.6,49.2,27.70,SSE,156,7.6,7.6,45,0.00,,---,0.00,VWS V14.01,2013-04-11 22:00:00,
2013-04-11 17:02:00,71.6,49.2,27.70,South,173,5.8,5.8,45,0.00,,---,0.00,VWS V14.01,2013-04-11 22:02:00,
2013-04-11 17:03:00,71.6,49.2,27.67,South,173,5.8,5.8,45,0.00,,---,0.00,VWS V14.01,2013-04-11 22:03:00,
2013-04-11 17:05:00,71.6,49.2,27.67,South,178,4.0,4.0,45,0.00,,---,0.00,VWS V14.01,2013-04-11 22:05:00,
2013-04-11 17:07:00,71.6,49.2,27.67,South,182,6.3,6.3,45,0.00,,---,0.00,VWS V14.01,2013-04-11 22:07:00,
2013-04-11 17:08:00,71.6,49.2,27.67,SE,144,4.0,4.0,45,0.00,,---,0.00,VWS V14.01,2013-04-11 22:08:00,
2013-04-11 17:10:00,71.6,49.2,27.67,South,173,4.0,4.0,45,0.00,,---,0.00,VWS V14.01,2013-04-11 22:10:00,
2013-04-11 17:12:00,71.6,49.2,27.67,SSE,166,7.6,7.6,45,0.00,,---,0.00,VWS V14.01,2013-04-11 22:12:00,
2013-04-11 17:13:00,71.6,49.2,27.67,SSE,166,7.6,7.6,45,0.00,,---,0.00,VWS V14.01,2013-04-11 22:13:00,
2013-04-11 17:15:00,71.6,49.2,27.67,SE,145,4.9,5.8,45,0.00,,---,0.00,VWS V14.01,2013-04-11 22:15:00,
2013-04-11 17:17:00,71.6,49.2,27.67,SSE,160,4.0,4.0,45,0.00,,---,0.00,VWS V14.01,2013-04-11 22:17:00,
2013-04-11 17:18:00,71.6,49.2,27.67,SSE,160,4.0,4.0,45,0.00,,---,0.00,VWS V14.01,2013-04-11 22:18:00,
2013-04-11 17:20:00,71.4,49.0,27.67,SSE,160,4.0,4.0,45,0.00,,---,0.00,VWS V14.01,2013-04-11 22:20:00,
2013-04-11 17:22:00,71.6,49.2,27.67,SW,230,5.8,5.8,45,0.00,,---,0.00,VWS V14.01,2013-04-11 22:22:00,
2013-04-11 17:23:00,71.6,49.2,27.67,SW,230,5.8,5.8,45,0.00,,---,0.00,VWS V14.01,2013-04-11 22:23:00,
2013-04-11 17:25:00,71.4,49.6,27.67,South,188,3.1,5.8,46,0.00,,---,0.00,VWS V14.01,2013-04-11 22:25:00,
2013-04-11 17:27:00,71.4,49.0,27.70,South,169,4.0,4.0,45,0.00,,---,0.00,VWS V14.01,2013-04-11 22:27:00,
2013-04-11 17:28:00,71.4,49.0,27.70,South,181,5.4,5.4,45,0.00,,---,0.00,VWS V14.01,2013-04-11 22:28:00,
2013-04-11 17:30:00,71.4,49.0,27.70,South,181,5.4,5.4,45,0.00,,---,0.00,VWS V14.01,2013-04-11 22:30:00,
2013-04-11 17:32:00,71.4,49.0,27.70,SSW,197,0.0,0.0,45,0.00,,---,0.00,VWS V14.01,2013-04-11 22:32:00,
2013-04-11 17:33:00,71.4,49.6,27.70,SSW,197,0.0,0.0,46,0.00,,---,0.00,VWS V14.01,2013-04-11 22:33:00,
2013-04-11 17:35:00,71.2,49.4,27.70,SSW,197,0.0,0.0,46,0.00,,---,0.00,VWS V14.01,2013-04-11 22:35:00,
2013-04-11 17:37:00,71.2,50.0,27.70,SSE,164,3.1,3.1,47,0.00,,---,0.00,VWS V14.01,2013-04-11 22:37:00,
2013-04-11 17:38:00,71.1,50.4,27.70,SW,219,2.2,3.1,48,0.00,,---,0.00,VWS V14.01,2013-04-11 22:38:00,
2013-04-11 17:40:00,71.1,50.4,27.70,SW,219,0.0,0.0,48,0.00,,---,0.00,VWS V14.01,2013-04-11 22:40:00,
2013-04-11 17:42:00,70.9,50.2,27.73,WSW,253,0.0,0.0,48,0.00,,---,0.00,VWS V14.01,2013-04-11 22:42:00,
2013-04-11 17:43:00,70.5,50.5,27.73,WSW,253,0.0,0.0,49,0.00,,---,0.00,VWS V14.01,2013-04-11 22:43:00,
2013-04-11 17:45:00,70.5,50.5,27.73,WSW,253,0.0,0.0,49,0.00,,---,0.00,VWS V14.01,2013-04-11 22:45:00,
2013-04-11 17:47:00,70.2,50.7,27.73,WSW,241,2.7,2.7,50,0.00,,---,0.00,VWS V14.01,2013-04-11 22:47:00,
2013-04-11 17:48:00,70.2,52.2,27.73,WSW,241,0.0,0.0,53,0.00,,---,0.00,VWS V14.01,2013-04-11 22:48:00,
2013-04-11 17:49:00,70.2,52.2,27.73,WSW,241,0.0,0.0,53,0.00,,---,0.00,VWS V14.01,2013-04-11 22:49:00,
2013-04-11 17:50:00,70.2,52.2,27.73,SW,214,2.2,2.2,53,0.00,,---,0.00,VWS V14.01,2013-04-11 22:50:00,
2013-04-11 17:52:00,69.8,54.4,27.73,East,93,3.1,3.1,58,0.00,,---,0.00,VWS V14.01,2013-04-11 22:52:00,
2013-04-11 17:53:00,69.8,54.4,27.73,East,88,2.2,3.1,58,0.00,,---,0.00,VWS V14.01,2013-04-11 22:53:00,
2013-04-11 17:54:00,69.8,54.4,27.73,East,88,2.2,3.1,58,0.00,,---,0.00,VWS V14.01,2013-04-11 22:54:00,
2013-04-11 17:55:00,69.4,55.9,27.73,NW,321,2.7,2.7,62,0.00,,---,0.00,VWS V14.01,2013-04-11 22:55:00,
2013-04-11 17:57:00,69.4,55.9,27.73,WSW,258,2.7,2.7,62,0.00,,---,0.00,VWS V14.01,2013-04-11 22:57:00,
2013-04-11 17:59:00,69.3,56.6,27.73,NNW,344,0.0,2.7,64,0.00,,---,0.00,VWS V14.01,2013-04-11 22:59:00,
2013-04-11 18:00:00,68.9,57.1,27.73,WNW,287,6.3,6.3,66,0.00,,---,0.00,VWS V14.01,2013-04-11 23:00:00,
2013-04-11 18:02:00,68.7,56.9,27.73,SE,135,0.0,0.0,66,0.00,,---,0.00,VWS V14.01,2013-04-11 23:02:00,
2013-04-11 18:04:00,68.7,56.9,27.73,SE,135,0.0,0.0,66,0.00,,---,0.00,VWS V14.01,2013-04-11 23:04:00,
2013-04-11 18:05:00,68.0,56.2,27.73,SSE,152,6.3,6.3,66,0.00,,---,0.00,VWS V14.01,2013-04-11 23:05:00,
2013-04-11 18:08:00,67.3,55.1,27.73,East,96,0.0,3.6,65,0.00,,---,0.00,VWS V14.01,2013-04-11 23:08:00,
2013-04-11 18:09:00,67.3,55.1,27.73,East,96,0.0,0.0,65,0.00,,---,0.00,VWS V14.01,2013-04-11 23:09:00,
2013-04-11 18:10:00,67.1,54.5,27.70,East,96,0.0,0.0,64,0.00,,---,0.00,VWS V14.01,2013-04-11 23:10:00,
2013-04-11 18:13:00,66.4,53.8,27.70,SSE,160,2.7,2.7,64,0.00,,---,0.00,VWS V14.01,2013-04-11 23:13:00,
2013-04-11 18:14:00,66.0,53.5,27.70,SSE,163,2.7,3.6,64,0.00,,---,0.00,VWS V14.01,2013-04-11 23:14:00,
2013-04-11 18:15:00,65.8,54.2,27.70,SSE,154,6.7,6.7,66,0.00,,---,0.00,VWS V14.01,2013-04-11 23:15:00,
2013-04-11 18:18:00,65.5,54.2,27.70,SSE,147,8.1,8.1,67,0.00,,---,0.00,VWS V14.01,2013-04-11 23:18:00,
2013-04-11 18:19:00,65.5,54.2,27.70,SSE,168,10.5,10.5,67,0.00,,---,0.00,VWS V14.01,2013-04-11 23:19:00,
2013-04-11 18:20:00,65.1,54.3,27.70,SSE,156,5.8,5.8,68,0.00,,---,0.00,VWS V14.01,2013-04-11 23:20:00,
2013-04-11 18:23:00,65.1,54.3,27.70,SSE,159,4.9,5.4,68,0.16,,---,0.16,VWS V14.01,2013-04-11 23:23:00,
2013-04-11 18:24:00,65.1,54.3,27.70,SSW,206,4.9,4.9,68,0.16,,---,0.16,VWS V14.01,2013-04-11 23:24:00,
2013-04-11 18:25:00,65.1,54.3,27.70,South,177,4.9,4.9,68,0.16,,---,0.16,VWS V14.01,2013-04-11 23:25:00,
2013-04-11 18:28:00,64.4,54.4,27.70,SE,140,3.6,3.6,70,0.16,,---,0.16,VWS V14.01,2013-04-11 23:28:00,
2013-04-11 18:29:00,64.4,54.4,27.70,SSE,157,5.4,5.4,70,0.16,,---,0.16,VWS V14.01,2013-04-11 23:29:00,
2013-04-11 18:30:00,64.4,54.4,27.70,SSE,157,5.4,5.4,70,0.16,,---,0.16,VWS V14.01,2013-04-11 23:30:00,
2013-04-11 18:31:00,64.2,54.6,27.70,SSE,157,5.4,5.4,71,0.16,,---,0.16,VWS V14.01,2013-04-11 23:31:00,
2013-04-11 18:33:00,63.9,54.3,27.70,SSE,161,6.3,6.3,71,0.16,,---,0.16,VWS V14.01,2013-04-11 23:33:00,
2013-04-11 18:34:00,63.9,54.3,27.70,SSE,147,6.3,6.3,71,0.16,,---,0.16,VWS V14.01,2013-04-11 23:34:00,
2013-04-11 18:35:00,63.9,54.3,27.70,SSE,147,6.3,6.3,71,0.16,,---,0.16,VWS V14.01,2013-04-11 23:35:00,
2013-04-11 18:36:00,63.9,54.3,27.70,SSE,147,6.3,6.3,71,0.16,,---,0.16,VWS V14.01,2013-04-11 23:36:00,
2013-04-11 18:38:00,63.9,54.7,27.70,South,179,8.1,8.1,72,0.20,,---,0.20,VWS V14.01,2013-04-11 23:38:00,
2013-04-11 18:39:00,63.9,54.7,27.70,South,176,8.7,8.7,72,0.20,,---,0.20,VWS V14.01,2013-04-11 23:39:00,
2013-04-11 18:40:00,63.9,54.7,27.70,South,176,8.7,8.7,72,0.20,,---,0.20,VWS V14.01,2013-04-11 23:40:00,
2013-04-11 18:41:00,63.7,54.5,27.70,SSE,153,5.8,8.7,72,0.20,,---,0.20,VWS V14.01,2013-04-11 23:41:00,
2013-04-11 18:43:00,63.7,54.5,27.70,South,174,8.1,8.1,72,0.20,,---,0.20,VWS V14.01,2013-04-11 23:43:00,
2013-04-11 18:45:00,63.7,54.5,27.70,South,180,3.6,3.6,72,0.20,,---,0.20,VWS V14.01,2013-04-11 23:45:00,
2013-04-11 18:46:00,63.5,54.7,27.70,SE,145,5.4,5.8,73,0.20,,---,0.20,VWS V14.01,2013-04-11 23:46:00,
2013-04-11 18:49:00,63.5,54.7,27.70,SSE,153,4.0,5.4,73,0.20,,---,0.20,VWS V14.01,2013-04-11 23:49:00,
2013-04-11 18:50:00,63.5,54.7,27.70,SSE,167,6.3,6.3,73,0.20,,---,0.20,VWS V14.01,2013-04-11 23:50:00,
2013-04-11 18:52:00,63.5,54.7,27.70,SSE,154,5.4,5.4,73,0.20,,---,0.20,VWS V14.01,2013-04-11 23:52:00,
2013-04-11 18:55:00,63.3,54.9,27.70,South,186,0.0,0.0,74,0.20,,---,0.20,VWS V14.01,2013-04-11 23:55:00,
2013-04-11 18:57:00,63.3,54.9,27.70,WSW,253,3.6,3.6,74,0.20,,---,0.20,VWS V14.01,2013-04-11 23:57:00,
2013-04-11 19:00:00,63.3,54.9,27.70,West,274,0.0,0.0,74,0.20,,---,0.20,VWS V14.01,2013-04-12 00:00:00,
2013-04-11 19:02:00,63.3,54.9,27.70,WSW,256,0.0,0.0,74,0.20,,---,0.20,VWS V14.01,2013-04-12 00:02:00,
2013-04-11 19:05:00,63.3,55.3,27.70,East,82,0.0,0.0,75,0.20,,---,0.20,VWS V14.01,2013-04-12 00:05:00,
2013-04-11 19:07:00,63.7,57.4,27.70,NE,38,3.6,3.6,80,0.20,,---,0.20,VWS V14.01,2013-04-12 00:07:00,
2013-04-11 19:10:00,63.7,57.8,27.70,South,183,8.1,8.1,81,0.24,,---,0.24,VWS V14.01,2013-04-12 00:10:00,
2013-04-11 19:12:00,63.5,57.9,27.70,SSW,194,2.7,2.7,82,0.24,,---,0.24,VWS V14.01,2013-04-12 00:12:00,
2013-04-11 19:15:00,63.7,58.1,27.76,North,353,0.0,0.0,82,0.24,,---,0.24,VWS V14.01,2013-04-12 00:15:00,
2013-04-11 19:16:00,63.7,58.4,27.76,North,7,4.0,4.0,83,0.24,,---,0.24,VWS V14.01,2013-04-12 00:16:00,
2013-04-11 19:17:00,63.7,58.4,27.76,North,357,3.6,5.8,83,0.24,,---,0.24,VWS V14.01,2013-04-12 00:17:00,
2013-04-11 19:20:00,63.7,58.4,27.76,SW,226,5.8,5.8,83,0.24,,---,0.24,VWS V14.01,2013-04-12 00:20:00,
2013-04-11 19:21:00,63.7,58.4,27.76,SW,226,5.8,5.8,83,0.24,,---,0.24,VWS V14.01,2013-04-12 00:21:00,
2013-04-11 19:22:00,63.5,58.6,27.76,South,189,0.0,0.0,84,0.24,,---,0.24,VWS V14.01,2013-04-12 00:22:00,
2013-04-11 19:25:00,63.5,58.6,27.76,South,181,0.0,0.0,84,0.24,,---,0.39,VWS V14.01,2013-04-12 00:25:00,
2013-04-11 19:26:00,63.5,58.6,27.76,South,181,0.0,0.0,84,0.24,,---,0.39,VWS V14.01,2013-04-12 00:26:00,
2013-04-11 19:27:00,63.5,58.6,27.76,South,181,0.0,0.0,84,0.24,,---,0.39,VWS V14.01,2013-04-12 00:27:00,
2013-04-11 19:30:00,63.5,58.6,27.76,WSW,253,0.0,0.0,84,0.24,,---,0.39,VWS V14.01,2013-04-12 00:30:00,
2013-04-11 19:31:00,63.3,58.4,27.76,WSW,253,0.0,0.0,84,0.24,,---,0.39,VWS V14.01,2013-04-12 00:31:00,
2013-04-11 19:32:00,63.3,58.4,27.76,WSW,253,0.0,0.0,84,0.24,,---,0.39,VWS V14.01,2013-04-12 00:32:00,
2013-04-11 19:35:00,63.3,58.4,27.76,WSW,257,0.0,0.0,84,0.24,,---,0.39,VWS V14.01,2013-04-12 00:35:00,
2013-04-11 19:36:00,63.3,58.4,27.76,WSW,257,0.0,0.0,84,0.24,,---,0.39,VWS V14.01,2013-04-12 00:36:00,
2013-04-11 19:37:00,63.3,58.4,27.76,WSW,258,0.0,0.0,84,0.24,,---,0.39,VWS V14.01,2013-04-12 00:37:00,
2013-04-11 19:40:00,63.3,58.4,27.76,WSW,258,0.0,0.0,84,0.20,,---,0.39,VWS V14.01,2013-04-12 00:40:00,
2013-04-11 19:41:00,63.3,58.4,27.76,NW,317,2.7,2.7,84,0.20,,---,0.39,VWS V14.01,2013-04-12 00:41:00,
2013-04-11 19:42:00,63.3,58.4,27.76,NW,317,2.7,2.7,84,0.20,,---,0.39,VWS V14.01,2013-04-12 00:42:00,
2013-04-11 19:45:00,63.1,58.2,27.76,WNW,297,0.0,0.0,84,0.24,,---,0.43,VWS V14.01,2013-04-12 00:45:00,
2013-04-11 19:46:00,63.1,58.2,27.76,WNW,297,0.0,0.0,84,0.24,,---,0.43,VWS V14.01,2013-04-12 00:46:00,
2013-04-11 19:47:00,63.1,58.2,27.76,WNW,297,0.0,0.0,84,0.24,,---,0.43,VWS V14.01,2013-04-12 00:47:00,
2013-04-11 19:51:00,63.1,58.2,27.76,SSW,207,0.0,0.0,84,0.24,,---,0.43,VWS V14.01,2013-04-12 00:51:00,
2013-04-11 19:52:00,63.1,58.2,27.76,SSW,207,0.0,0.0,84,0.24,,---,0.43,VWS V14.01,2013-04-12 00:52:00,
2013-04-11 19:53:00,63.1,58.2,27.76,SSW,207,0.0,0.0,84,0.24,,---,0.43,VWS V14.01,2013-04-12 00:53:00,
2013-04-11 19:56:00,63.1,58.2,27.76,SSW,207,0.0,0.0,84,0.24,,---,0.43,VWS V14.01,2013-04-12 00:56:00,
2013-04-11 19:57:00,63.1,58.2,27.76,South,185,0.0,0.0,84,0.24,,---,0.43,VWS V14.01,2013-04-12 00:57:00,
2013-04-11 19:58:00,63.1,58.2,27.76,South,185,0.0,0.0,84,0.24,,---,0.43,VWS V14.01,2013-04-12 00:58:00,
2013-04-11 20:01:00,63.1,58.6,27.76,South,184,0.0,0.0,85,0.24,,---,0.43,VWS V14.01,2013-04-12 01:01:00,
2013-04-11 20:02:00,63.1,58.6,27.76,South,184,0.0,0.0,85,0.24,,---,0.43,VWS V14.01,2013-04-12 01:02:00,
2013-04-11 20:03:00,63.1,58.6,27.76,South,184,0.0,0.0,85,0.24,,---,0.43,VWS V14.01,2013-04-12 01:03:00,
2013-04-11 20:06:00,63.1,58.2,27.76,South,181,0.0,0.0,84,0.35,,---,0.55,VWS V14.01,2013-04-12 01:06:00,
2013-04-11 20:07:00,63.1,58.2,27.76,South,181,0.0,0.0,84,0.35,,---,0.55,VWS V14.01,2013-04-12 01:07:00,
2013-04-11 20:08:00,63.1,58.2,27.76,South,181,0.0,0.0,84,0.35,,---,0.55,VWS V14.01,2013-04-12 01:08:00,
2013-04-11 20:12:00,63.0,58.1,27.76,South,180,0.0,0.0,84,0.31,,---,0.55,VWS V14.01,2013-04-12 01:12:00,
2013-04-11 20:13:00,63.0,58.1,27.76,South,180,0.0,0.0,84,0.35,,---,0.59,VWS V14.01,2013-04-12 01:13:00,
2013-04-11 20:17:00,63.0,58.1,27.76,SE,143,0.0,0.0,84,0.35,,---,0.59,VWS V14.01,2013-04-12 01:17:00,
2013-04-11 20:18:00,63.0,58.1,27.76,SE,143,0.0,0.0,84,0.35,,---,0.59,VWS V14.01,2013-04-12 01:18:00,
2013-04-11 20:22:00,63.0,58.1,27.76,SSE,167,0.0,0.0,84,0.35,,---,0.59,VWS V14.01,2013-04-12 01:22:00,
2013-04-11 20:23:00,63.0,58.1,27.76,South,172,0.0,0.0,84,0.35,,---,0.59,VWS V14.01,2013-04-12 01:23:00,
2013-04-11 20:27:00,63.0,58.4,27.73,South,174,0.0,0.0,85,0.20,,---,0.59,VWS V14.01,2013-04-12 01:27:00,
2013-04-11 20:28:00,63.0,58.4,27.73,South,174,0.0,0.0,85,0.20,,---,0.59,VWS V14.01,2013-04-12 01:28:00,
2013-04-11 20:32:00,63.0,58.4,27.73,SE,139,0.0,0.0,85,0.20,,---,0.59,VWS V14.01,2013-04-12 01:32:00,
2013-04-11 20:33:00,63.0,58.7,27.73,SE,139,0.0,0.0,86,0.20,,---,0.59,VWS V14.01,2013-04-12 01:33:00,
2013-04-11 20:38:00,63.0,58.7,27.73,SSE,163,0.0,0.0,86,0.28,,---,0.67,VWS V14.01,2013-04-12 01:38:00,
2013-04-11 20:39:00,63.0,58.7,27.73,SSE,163,0.0,0.0,86,0.28,,---,0.67,VWS V14.01,2013-04-12 01:39:00,
2013-04-11 20:43:00,63.0,58.7,27.73,South,173,0.0,2.7,86,0.28,,---,0.67,VWS V14.01,2013-04-12 01:43:00,
2013-04-11 20:44:00,63.0,58.7,27.73,South,173,0.0,0.0,86,0.28,,---,0.67,VWS V14.01,2013-04-12 01:44:00,
2013-04-11 20:48:00,63.0,58.7,27.73,South,173,0.0,0.0,86,0.24,,---,0.67,VWS V14.01,2013-04-12 01:48:00,
2013-04-11 20:49:00,63.0,58.7,27.73,SSE,151,2.7,2.7,86,0.24,,---,0.67,VWS V14.01,2013-04-12 01:49:00,
2013-04-11 20:53:00,62.8,58.5,27.73,South,184,2.2,2.2,86,0.24,,---,0.67,VWS V14.01,2013-04-12 01:53:00,
2013-04-11 20:54:00,62.8,58.5,27.73,South,184,2.2,2.2,86,0.24,,---,0.67,VWS V14.01,2013-04-12 01:54:00,
2013-04-11 20:58:00,62.8,58.9,27.76,SSE,154,3.6,3.6,87,0.24,,---,0.67,VWS V14.01,2013-04-12 01:58:00,
2013-04-11 20:59:00,62.8,58.9,27.76,SSE,155,0.0,3.6,87,0.24,,---,0.67,VWS V14.01,2013-04-12 01:59:00,
2013-04-11 21:03:00,62.8,58.9,27.76,SSE,155,0.0,3.1,87,0.24,,---,0.67,VWS V14.01,2013-04-12 02:03:00,
2013-04-11 21:04:00,62.8,58.9,27.76,SSE,159,2.7,2.7,87,0.12,,---,0.67,VWS V14.01,2013-04-12 02:04:00,
2013-04-11 21:08:00,62.6,58.7,27.76,SSE,167,0.0,0.0,87,0.20,,---,0.75,VWS V14.01,2013-04-12 02:08:00,
2013-04-11 21:09:00,62.6,58.7,27.73,SSE,167,0.0,0.0,87,0.20,,---,0.75,VWS V14.01,2013-04-12 02:09:00,
2013-04-11 21:13:00,62.6,58.7,27.73,South,186,0.0,0.0,87,0.16,,---,0.75,VWS V14.01,2013-04-12 02:13:00,
2013-04-11 21:14:00,62.6,58.7,27.73,South,187,0.0,0.0,87,0.16,,---,0.75,VWS V14.01,2013-04-12 02:14:00,
2013-04-11 21:18:00,62.6,58.7,27.73,South,179,2.7,2.7,87,0.16,,---,0.75,VWS V14.01,2013-04-12 02:18:00,
2013-04-11 21:19:00,62.6,58.7,27.73,South,179,2.7,2.7,87,0.16,,---,0.75,VWS V14.01,2013-04-12 02:19:00,
2013-04-11 21:20:00,62.6,58.7,27.73,South,179,2.7,2.7,87,0.16,,---,0.75,VWS V14.01,2013-04-12 02:20:00,
2013-04-11 21:23:00,62.6,59.0,27.73,South,171,2.7,2.7,88,0.16,,---,0.75,VWS V14.01,2013-04-12 02:23:00,
2013-04-11 21:24:00,62.6,59.0,27.73,South,179,0.0,0.0,88,0.16,,---,0.75,VWS V14.01,2013-04-12 02:24:00,
2013-04-11 21:25:00,62.6,59.0,27.73,SSE,160,3.1,3.1,88,0.16,,---,0.75,VWS V14.01,2013-04-12 02:25:00,
2013-04-11 21:28:00,62.6,59.0,27.73,SSE,166,2.7,2.7,88,0.20,,---,0.79,VWS V14.01,2013-04-12 02:28:00,
2013-04-11 21:29:00,62.4,59.1,27.73,SSE,150,4.0,4.0,89,0.20,,---,0.79,VWS V14.01,2013-04-12 02:29:00,
2013-04-11 21:30:00,62.4,59.1,27.73,SSE,150,4.0,4.0,89,0.20,,---,0.79,VWS V14.01,2013-04-12 02:30:00,
2013-04-11 21:33:00,62.4,59.1,27.76,SSE,168,3.1,3.1,89,0.20,,---,0.79,VWS V14.01,2013-04-12 02:33:00,
2013-04-11 21:35:00,62.4,59.1,27.76,SSE,164,5.4,5.4,89,0.20,,---,0.79,VWS V14.01,2013-04-12 02:35:00,
2013-04-11 21:38:00,62.4,59.1,27.76,SSE,149,4.0,4.0,89,0.12,,---,0.79,VWS V14.01,2013-04-12 02:38:00,
2013-04-11 21:40:00,62.4,59.1,27.76,SSE,158,2.7,2.7,89,0.12,,---,0.79,VWS V14.01,2013-04-12 02:40:00,
2013-04-11 21:43:00,62.2,59.0,27.73,SSE,158,4.0,4.0,89,0.12,,---,0.79,VWS V14.01,2013-04-12 02:43:00,
2013-04-11 21:45:00,62.2,59.0,27.73,South,173,3.6,4.9,89,0.12,,---,0.79,VWS V14.01,2013-04-12 02:45:00,
2013-04-11 21:46:00,62.2,59.0,27.73,SSE,167,4.9,4.9,89,0.16,,---,0.83,VWS V14.01,2013-04-12 02:46:00,
2013-04-11 21:49:00,62.2,59.0,27.73,SSE,155,3.6,3.6,89,0.16,,---,0.83,VWS V14.01,2013-04-12 02:49:00,
2013-04-11 21:50:00,62.2,59.3,27.73,SSE,155,3.6,3.6,90,0.16,,---,0.83,VWS V14.01,2013-04-12 02:50:00,
2013-04-11 21:51:00,62.2,59.3,27.73,SE,143,3.1,3.1,90,0.16,,---,0.83,VWS V14.01,2013-04-12 02:51:00,
2013-04-11 21:54:00,62.2,59.3,27.73,SE,144,2.7,4.0,90,0.16,,---,0.83,VWS V14.01,2013-04-12 02:54:00,
2013-04-11 21:55:00,62.2,59.3,27.73,SE,142,4.0,4.0,90,0.16,,---,0.83,VWS V14.01,2013-04-12 02:55:00,
2013-04-11 21:56:00,62.2,59.3,27.73,SE,142,4.0,4.0,90,0.16,,---,0.83,VWS V14.01,2013-04-12 02:56:00,
2013-04-11 21:59:00,62.2,59.3,27.73,SSE,156,5.8,5.8,90,0.16,,---,0.83,VWS V14.01,2013-04-12 02:59:00,
2013-04-11 22:00:00,62.2,59.3,27.73,SSE,152,3.6,3.6,90,0.16,,---,0.83,VWS V14.01,2013-04-12 03:00:00,
2013-04-11 22:01:00,62.2,59.6,27.73,SE,130,11.0,11.0,91,0.16,,---,0.83,VWS V14.01,2013-04-12 03:01:00,
2013-04-11 22:04:00,62.2,59.6,27.73,SSE,162,7.6,7.6,91,0.16,,---,0.83,VWS V14.01,2013-04-12 03:04:00,
2013-04-11 22:05:00,62.2,59.6,27.73,South,172,5.4,5.4,91,0.16,,---,0.83,VWS V14.01,2013-04-12 03:05:00,
2013-04-11 22:06:00,62.2,59.6,27.70,South,174,7.6,7.6,91,0.16,,---,0.83,VWS V14.01,2013-04-12 03:06:00,
2013-04-11 22:09:00,62.2,59.6,27.70,South,172,7.6,13.2,91,0.08,,---,0.83,VWS V14.01,2013-04-12 03:09:00,
2013-04-11 22:10:00,62.2,59.6,27.70,SSE,165,10.5,10.5,91,0.08,,---,0.83,VWS V14.01,2013-04-12 03:10:00,
2013-04-11 22:11:00,62.2,59.6,27.70,SSE,165,10.5,10.5,91,0.08,,---,0.83,VWS V14.01,2013-04-12 03:11:00,
2013-04-11 22:14:00,62.2,59.6,27.70,SE,143,4.0,4.0,91,0.08,,---,0.83,VWS V14.01,2013-04-12 03:14:00,
2013-04-11 22:15:00,62.2,59.6,27.70,SSE,163,8.1,8.1,91,0.08,,---,0.83,VWS V14.01,2013-04-12 03:15:00,
2013-04-11 22:16:00,62.2,59.6,27.70,SSE,163,8.1,8.1,91,0.08,,---,0.83,VWS V14.01,2013-04-12 03:16:00,
2013-04-11 22:17:00,62.2,59.6,27.70,SSE,147,4.0,4.0,91,0.08,,---,0.83,VWS V14.01,2013-04-12 03:17:00,
2013-04-11 22:19:00,62.2,59.6,27.70,South,171,8.1,8.1,91,0.16,,---,0.91,VWS V14.01,2013-04-12 03:19:00,
2013-04-11 22:20:00,62.2,59.6,27.70,SE,128,6.3,6.3,91,0.16,,---,0.91,VWS V14.01,2013-04-12 03:20:00,
2013-04-11 22:21:00,62.2,59.6,27.70,SE,128,6.3,6.3,91,0.16,,---,0.91,VWS V14.01,2013-04-12 03:21:00,
2013-04-11 22:22:00,62.2,59.6,27.70,ESE,115,5.4,5.4,91,0.16,,---,0.91,VWS V14.01,2013-04-12 03:22:00,
2013-04-11 22:24:00,62.1,59.4,27.70,SE,137,4.9,7.2,91,0.16,,---,0.91,VWS V14.01,2013-04-12 03:24:00,
2013-04-11 22:25:00,61.9,59.2,27.70,ESE,120,5.4,5.4,91,0.16,,---,0.91,VWS V14.01,2013-04-12 03:25:00,
2013-04-11 22:26:00,61.9,59.2,27.70,ESE,120,5.4,5.4,91,0.16,,---,0.91,VWS V14.01,2013-04-12 03:26:00,
2013-04-11 22:27:00,61.9,59.2,27.70,ESE,120,5.4,5.4,91,0.12,,---,0.91,VWS V14.01,2013-04-12 03:27:00,
2013-04-11 22:29:00,61.9,59.2,27.70,ENE,63,3.6,5.4,91,0.12,,---,0.91,VWS V14.01,2013-04-12 03:29:00,
2013-04-11 22:30:00,61.9,59.2,27.70,WNW,294,8.7,8.7,91,0.12,,---,0.91,VWS V14.01,2013-04-12 03:30:00,
2013-04-11 22:31:00,61.9,59.2,27.64,WNW,294,8.7,8.7,91,0.12,,---,0.91,VWS V14.01,2013-04-12 03:31:00,
2013-04-11 22:32:00,61.9,59.2,27.64,SSW,209,5.8,5.8,91,0.12,,---,0.91,VWS V14.01,2013-04-12 03:32:00,
2013-04-11 22:34:00,62.1,59.4,27.64,WNW,288,8.3,8.3,91,0.12,,---,0.91,VWS V14.01,2013-04-12 03:34:00,
2013-04-11 22:36:00,62.1,59.4,27.64,SE,128,4.9,4.9,91,0.12,,---,0.91,VWS V14.01,2013-04-12 03:36:00,
2013-04-11 22:38:00,62.1,59.4,27.64,South,181,3.6,5.8,91,0.12,,---,0.91,VWS V14.01,2013-04-12 03:38:00,
2013-04-11 22:39:00,62.1,59.4,27.67,SSE,159,8.3,10.1,91,0.12,,---,0.91,VWS V14.01,2013-04-12 03:39:00,
2013-04-11 22:41:00,62.1,59.4,27.67,WSW,246,8.3,8.3,91,0.12,,---,0.91,VWS V14.01,2013-04-12 03:41:00,
2013-04-11 22:43:00,62.2,59.6,27.67,WSW,252,11.0,11.0,91,0.12,,---,0.91,VWS V14.01,2013-04-12 03:43:00,
2013-04-11 22:44:00,62.2,59.6,27.67,South,184,4.9,8.1,91,0.12,,---,0.91,VWS V14.01,2013-04-12 03:44:00,
2013-04-11 22:46:00,62.2,59.6,27.67,South,177,9.6,9.6,91,0.12,,---,0.91,VWS V14.01,2013-04-12 03:46:00,
2013-04-11 22:48:00,62.2,59.6,27.67,SE,136,4.9,4.9,91,0.08,,---,0.91,VWS V14.01,2013-04-12 03:48:00,
2013-04-11 22:50:00,62.2,59.6,27.67,South,190,3.6,4.5,91,0.08,,---,0.91,VWS V14.01,2013-04-12 03:50:00,
2013-04-11 22:51:00,62.2,59.6,27.67,SSE,150,10.5,10.5,91,0.08,,---,0.91,VWS V14.01,2013-04-12 03:51:00,
2013-04-11 22:52:00,62.2,59.6,27.67,SSE,155,8.1,10.5,91,0.08,,---,0.91,VWS V14.01,2013-04-12 03:52:00,
2013-04-11 22:53:00,62.2,59.6,27.67,SSE,155,8.1,8.1,91,0.08,,---,0.91,VWS V14.01,2013-04-12 03:53:00,
2013-04-11 22:55:00,62.4,59.8,27.67,SSE,155,8.1,8.1,91,0.08,,---,0.91,VWS V14.01,2013-04-12 03:55:00,
2013-04-11 22:56:00,62.4,59.8,27.67,SSE,157,4.9,4.9,91,0.08,,---,0.91,VWS V14.01,2013-04-12 03:56:00,
2013-04-11 22:57:00,62.4,59.8,27.67,SSE,165,7.6,7.6,91,0.08,,---,0.91,VWS V14.01,2013-04-12 03:57:00,
2013-04-11 22:58:00,62.4,59.8,27.67,SE,141,2.7,7.6,91,0.08,,---,0.91,VWS V14.01,2013-04-12 03:58:00,
2013-04-11 23:00:00,62.4,59.5,27.67,SSW,203,8.3,8.3,90,0.08,,---,0.91,VWS V14.01,2013-04-12 04:00:00,
2013-04-11 23:05:00,62.4,59.5,27.70,SSW,195,6.3,6.3,90,0.08,,---,0.00,VWS V14.01,2013-04-12 04:05:00,
2013-04-11 23:10:00,62.4,59.5,27.73,South,176,8.3,8.3,90,0.08,,---,0.00,VWS V14.01,2013-04-12 04:10:00,
2013-04-11 23:15:00,62.4,59.1,27.73,South,182,3.1,5.8,89,0.08,,---,0.00,VWS V14.01,2013-04-12 04:15:00,
2013-04-11 23:20:00,62.4,59.1,27.73,South,176,8.3,8.3,89,0.00,,---,0.00,VWS V14.01,2013-04-12 04:20:00,
2013-04-11 23:21:00,62.4,59.1,27.73,South,181,8.1,8.1,89,0.00,,---,0.00,VWS V14.01,2013-04-12 04:21:00,
2013-04-11 23:25:00,62.4,59.1,27.73,SSW,195,8.1,8.1,89,0.00,,---,0.00,VWS V14.01,2013-04-12 04:25:00,
2013-04-11 23:26:00,62.4,59.1,27.73,SSW,197,4.0,8.1,89,0.00,,---,0.00,VWS V14.01,2013-04-12 04:26:00,
2013-04-11 23:30:00,62.4,58.8,27.73,SE,130,3.1,5.4,88,0.00,,---,0.00,VWS V14.01,2013-04-12 04:30:00,
2013-04-11 23:31:00,62.4,58.8,27.73,South,177,4.9,4.9,88,0.00,,---,0.00,VWS V14.01,2013-04-12 04:31:00,
2013-04-11 23:35:00,62.4,58.8,27.73,South,188,5.4,7.6,88,0.00,,---,0.00,VWS V14.01,2013-04-12 04:35:00,
2013-04-11 23:36:00,62.4,58.8,27.73,South,188,5.4,5.4,88,0.00,,---,0.00,VWS V14.01,2013-04-12 04:36:00,
2013-04-11 23:40:00,62.4,58.5,27.70,SSE,165,5.4,5.4,87,0.00,,---,0.00,VWS V14.01,2013-04-12 04:40:00,
2013-04-11 23:41:00,62.4,58.5,27.70,SSE,165,5.4,5.4,87,0.00,,---,0.00,VWS V14.01,2013-04-12 04:41:00,
2013-04-11 23:45:00,62.4,58.5,27.70,SSE,166,6.3,7.6,87,0.00,,---,0.00,VWS V14.01,2013-04-12 04:45:00,
2013-04-11 23:46:00,62.4,58.5,27.70,SSE,166,6.3,7.6,87,0.00,,---,0.00,VWS V14.01,2013-04-12 04:46:00,
2013-04-11 23:47:00,62.4,58.5,27.70,South,179,3.6,4.9,87,0.00,,---,0.00,VWS V14.01,2013-04-12 04:47:00,
2013-04-11 23:51:00,62.4,58.5,27.70,SSE,166,3.6,3.6,87,0.00,,---,0.00,VWS V14.01,2013-04-12 04:51:00,
2013-04-11 23:52:00,62.4,58.5,27.70,South,180,5.4,5.4,87,0.00,,---,0.00,VWS V14.01,2013-04-12 04:52:00,
2013-04-11 23:56:00,62.4,58.5,27.70,South,185,4.9,4.9,87,0.00,,---,0.00,VWS V14.01,2013-04-12 04:56:00,
2013-04-11 23:57:00,62.4,58.5,27.70,South,187,5.8,5.8,87,0.00,,---,0.00,VWS V14.01,2013-04-12 04:57:00,